<?xml version="1.0" encoding="UTF-8" standalone="no" ?>
<gpx xmlns="http://www.topografix.com/GPX/1/1" xmlns:xsi="http://www.w3.org/2001/XMLSchema-instance" xsi:schemaLocation="http://www.topografix.com/GPX/1/1 http://www.topografix.com/GPX/1/1/gpx.xsd" version="1.1" creator="VisuGPX - https://www.visugpx.com">
  <metadata>
    <name>2017-06-07-Pradelle-Cabardes</name>
    <desc><![CDATA[Randonnée d'environ 14km pour un dénivelé de 560m au départ de Pradelle Cabardès vers le Pic de Nore]]></desc>
  </metadata>
  <trk>
    <name><![CDATA[OR-8004461--Pradelles-Cabardès:v2]]></name>
    <trkseg>
      <trkpt lat="43.40161" lon="2.43973">
        <ele>788</ele>
        <time>2017-10-12T19:25:35Z</time>
      </trkpt>
      <trkpt lat="43.4016" lon="2.43947">
        <ele>790</ele>
        <time>2017-10-12T19:27:35Z</time>
      </trkpt>
      <trkpt lat="43.40159" lon="2.43919">
        <ele>792</ele>
        <time>2017-10-12T19:29:35Z</time>
      </trkpt>
      <trkpt lat="43.40161" lon="2.43888">
        <ele>794</ele>
        <time>2017-10-12T19:31:35Z</time>
      </trkpt>
      <trkpt lat="43.40155" lon="2.43858">
        <ele>795</ele>
        <time>2017-10-12T19:33:35Z</time>
      </trkpt>
      <trkpt lat="43.40153" lon="2.43843">
        <ele>795</ele>
        <time>2017-10-12T19:35:35Z</time>
      </trkpt>
      <trkpt lat="43.40161" lon="2.43833">
        <ele>796</ele>
        <time>2017-10-12T19:37:35Z</time>
      </trkpt>
      <trkpt lat="43.4017" lon="2.4383">
        <ele>797</ele>
        <time>2017-10-12T19:39:35Z</time>
      </trkpt>
      <trkpt lat="43.40174" lon="2.4383">
        <ele>797</ele>
        <time>2017-10-12T19:41:35Z</time>
      </trkpt>
      <trkpt lat="43.40194" lon="2.43826">
        <ele>798</ele>
        <time>2017-10-12T19:43:35Z</time>
      </trkpt>
      <trkpt lat="43.40198" lon="2.43823">
        <ele>799</ele>
        <time>2017-10-12T19:45:35Z</time>
      </trkpt>
      <trkpt lat="43.40216" lon="2.43818">
        <ele>800</ele>
        <time>2017-10-12T19:47:35Z</time>
      </trkpt>
      <trkpt lat="43.40222" lon="2.43816">
        <ele>800</ele>
        <time>2017-10-12T19:49:35Z</time>
      </trkpt>
      <trkpt lat="43.40241" lon="2.43806">
        <ele>802</ele>
        <time>2017-10-12T19:51:35Z</time>
      </trkpt>
      <trkpt lat="43.4026" lon="2.43803">
        <ele>803</ele>
        <time>2017-10-12T19:53:35Z</time>
      </trkpt>
      <trkpt lat="43.40275" lon="2.43803">
        <ele>803</ele>
        <time>2017-10-12T19:55:35Z</time>
      </trkpt>
      <trkpt lat="43.40279" lon="2.43803">
        <ele>804</ele>
        <time>2017-10-12T19:57:35Z</time>
      </trkpt>
      <trkpt lat="43.40292" lon="2.43794">
        <ele>805</ele>
        <time>2017-10-12T19:59:35Z</time>
      </trkpt>
      <trkpt lat="43.40304" lon="2.43779">
        <ele>807</ele>
        <time>2017-10-12T20:01:35Z</time>
      </trkpt>
      <trkpt lat="43.40314" lon="2.43767">
        <ele>808</ele>
        <time>2017-10-12T20:03:35Z</time>
      </trkpt>
      <trkpt lat="43.40326" lon="2.43749">
        <ele>811</ele>
        <time>2017-10-12T20:05:35Z</time>
      </trkpt>
      <trkpt lat="43.40335" lon="2.43745">
        <ele>812</ele>
        <time>2017-10-12T20:07:35Z</time>
      </trkpt>
      <trkpt lat="43.40341" lon="2.43753">
        <ele>812</ele>
        <time>2017-10-12T20:09:35Z</time>
      </trkpt>
      <trkpt lat="43.40363" lon="2.43766">
        <ele>813</ele>
        <time>2017-10-12T20:11:35Z</time>
      </trkpt>
      <trkpt lat="43.40379" lon="2.43777">
        <ele>814</ele>
        <time>2017-10-12T20:13:35Z</time>
      </trkpt>
      <trkpt lat="43.40395" lon="2.43795">
        <ele>814</ele>
        <time>2017-10-12T20:15:35Z</time>
      </trkpt>
      <trkpt lat="43.40405" lon="2.43813">
        <ele>814</ele>
        <time>2017-10-12T20:17:35Z</time>
      </trkpt>
      <trkpt lat="43.40416" lon="2.43829">
        <ele>813</ele>
        <time>2017-10-12T20:19:35Z</time>
      </trkpt>
      <trkpt lat="43.40438" lon="2.43846">
        <ele>815</ele>
        <time>2017-10-12T20:21:35Z</time>
      </trkpt>
      <trkpt lat="43.40457" lon="2.43851">
        <ele>817</ele>
        <time>2017-10-12T20:23:35Z</time>
      </trkpt>
      <trkpt lat="43.40482" lon="2.43856">
        <ele>820</ele>
        <time>2017-10-12T20:25:35Z</time>
      </trkpt>
      <trkpt lat="43.40502" lon="2.43862">
        <ele>822</ele>
        <time>2017-10-12T20:27:35Z</time>
      </trkpt>
      <trkpt lat="43.40519" lon="2.43869">
        <ele>824</ele>
        <time>2017-10-12T20:29:35Z</time>
      </trkpt>
      <trkpt lat="43.40537" lon="2.43879">
        <ele>825</ele>
        <time>2017-10-12T20:31:35Z</time>
      </trkpt>
      <trkpt lat="43.40556" lon="2.43893">
        <ele>825</ele>
        <time>2017-10-12T20:33:35Z</time>
      </trkpt>
      <trkpt lat="43.40574" lon="2.4391">
        <ele>825</ele>
        <time>2017-10-12T20:35:35Z</time>
      </trkpt>
      <trkpt lat="43.40587" lon="2.43923">
        <ele>825</ele>
        <time>2017-10-12T20:37:35Z</time>
      </trkpt>
      <trkpt lat="43.40588" lon="2.43922">
        <ele>825</ele>
        <time>2017-10-12T20:39:35Z</time>
      </trkpt>
      <trkpt lat="43.40611" lon="2.43942">
        <ele>828</ele>
        <time>2017-10-12T20:41:35Z</time>
      </trkpt>
      <trkpt lat="43.40625" lon="2.43962">
        <ele>827</ele>
        <time>2017-10-12T20:43:35Z</time>
      </trkpt>
      <trkpt lat="43.40633" lon="2.43974">
        <ele>827</ele>
        <time>2017-10-12T20:45:35Z</time>
      </trkpt>
      <trkpt lat="43.40648" lon="2.44008">
        <ele>825</ele>
        <time>2017-10-12T20:47:35Z</time>
      </trkpt>
      <trkpt lat="43.40658" lon="2.44037">
        <ele>824</ele>
        <time>2017-10-12T20:49:35Z</time>
      </trkpt>
      <trkpt lat="43.40661" lon="2.44049">
        <ele>824</ele>
        <time>2017-10-12T20:51:35Z</time>
      </trkpt>
      <trkpt lat="43.4067" lon="2.44061">
        <ele>824</ele>
        <time>2017-10-12T20:53:35Z</time>
      </trkpt>
      <trkpt lat="43.40678" lon="2.4409">
        <ele>823</ele>
        <time>2017-10-12T20:55:35Z</time>
      </trkpt>
      <trkpt lat="43.40686" lon="2.44099">
        <ele>824</ele>
        <time>2017-10-12T20:57:35Z</time>
      </trkpt>
      <trkpt lat="43.40696" lon="2.44103">
        <ele>826</ele>
        <time>2017-10-12T20:59:35Z</time>
      </trkpt>
      <trkpt lat="43.40709" lon="2.44116">
        <ele>827</ele>
        <time>2017-10-12T21:01:35Z</time>
      </trkpt>
      <trkpt lat="43.40718" lon="2.44137">
        <ele>827</ele>
        <time>2017-10-12T21:03:35Z</time>
      </trkpt>
      <trkpt lat="43.40719" lon="2.44141">
        <ele>827</ele>
        <time>2017-10-12T21:05:35Z</time>
      </trkpt>
      <trkpt lat="43.40722" lon="2.44146">
        <ele>827</ele>
        <time>2017-10-12T21:07:35Z</time>
      </trkpt>
      <trkpt lat="43.40733" lon="2.44172">
        <ele>827</ele>
        <time>2017-10-12T21:09:35Z</time>
      </trkpt>
      <trkpt lat="43.4074" lon="2.44194">
        <ele>828</ele>
        <time>2017-10-12T21:11:35Z</time>
      </trkpt>
      <trkpt lat="43.40751" lon="2.44209">
        <ele>829</ele>
        <time>2017-10-12T21:13:35Z</time>
      </trkpt>
      <trkpt lat="43.40752" lon="2.44211">
        <ele>830</ele>
        <time>2017-10-12T21:15:35Z</time>
      </trkpt>
      <trkpt lat="43.40752" lon="2.44212">
        <ele>830</ele>
        <time>2017-10-12T21:17:35Z</time>
      </trkpt>
      <trkpt lat="43.40758" lon="2.44213">
        <ele>831</ele>
        <time>2017-10-12T21:19:35Z</time>
      </trkpt>
      <trkpt lat="43.40767" lon="2.44198">
        <ele>835</ele>
        <time>2017-10-12T21:21:35Z</time>
      </trkpt>
      <trkpt lat="43.4077" lon="2.44172">
        <ele>837</ele>
        <time>2017-10-12T21:23:35Z</time>
      </trkpt>
      <trkpt lat="43.40771" lon="2.44164">
        <ele>837</ele>
        <time>2017-10-12T21:25:35Z</time>
      </trkpt>
      <trkpt lat="43.40771" lon="2.44133">
        <ele>840</ele>
        <time>2017-10-12T21:27:35Z</time>
      </trkpt>
      <trkpt lat="43.40769" lon="2.44109">
        <ele>842</ele>
        <time>2017-10-12T21:29:35Z</time>
      </trkpt>
      <trkpt lat="43.40762" lon="2.44083">
        <ele>842</ele>
        <time>2017-10-12T21:31:35Z</time>
      </trkpt>
      <trkpt lat="43.40742" lon="2.4404">
        <ele>842</ele>
        <time>2017-10-12T21:33:35Z</time>
      </trkpt>
      <trkpt lat="43.4074" lon="2.44037">
        <ele>842</ele>
        <time>2017-10-12T21:35:35Z</time>
      </trkpt>
      <trkpt lat="43.40737" lon="2.4402">
        <ele>843</ele>
        <time>2017-10-12T21:37:35Z</time>
      </trkpt>
      <trkpt lat="43.40744" lon="2.4401">
        <ele>846</ele>
        <time>2017-10-12T21:39:35Z</time>
      </trkpt>
      <trkpt lat="43.40754" lon="2.44009">
        <ele>849</ele>
        <time>2017-10-12T21:41:35Z</time>
      </trkpt>
      <trkpt lat="43.4076" lon="2.44013">
        <ele>851</ele>
        <time>2017-10-12T21:43:35Z</time>
      </trkpt>
      <trkpt lat="43.40762" lon="2.44017">
        <ele>851</ele>
        <time>2017-10-12T21:45:35Z</time>
      </trkpt>
      <trkpt lat="43.40772" lon="2.44026">
        <ele>854</ele>
        <time>2017-10-12T21:47:35Z</time>
      </trkpt>
      <trkpt lat="43.40786" lon="2.44042">
        <ele>856</ele>
        <time>2017-10-12T21:49:35Z</time>
      </trkpt>
      <trkpt lat="43.40798" lon="2.44057">
        <ele>859</ele>
        <time>2017-10-12T21:51:35Z</time>
      </trkpt>
      <trkpt lat="43.40806" lon="2.44063">
        <ele>860</ele>
        <time>2017-10-12T21:53:35Z</time>
      </trkpt>
      <trkpt lat="43.40816" lon="2.44084">
        <ele>861</ele>
        <time>2017-10-12T21:55:35Z</time>
      </trkpt>
      <trkpt lat="43.40824" lon="2.44107">
        <ele>861</ele>
        <time>2017-10-12T21:57:35Z</time>
      </trkpt>
      <trkpt lat="43.40828" lon="2.44135">
        <ele>860</ele>
        <time>2017-10-12T21:59:35Z</time>
      </trkpt>
      <trkpt lat="43.40838" lon="2.44172">
        <ele>860</ele>
        <time>2017-10-12T22:01:35Z</time>
      </trkpt>
      <trkpt lat="43.40834" lon="2.44175">
        <ele>858</ele>
        <time>2017-10-12T22:03:35Z</time>
      </trkpt>
      <trkpt lat="43.40833" lon="2.44175">
        <ele>857</ele>
        <time>2017-10-12T22:05:35Z</time>
      </trkpt>
      <trkpt lat="43.40831" lon="2.44174">
        <ele>857</ele>
        <time>2017-10-12T22:07:35Z</time>
      </trkpt>
      <trkpt lat="43.40836" lon="2.44176">
        <ele>859</ele>
        <time>2017-10-12T22:09:35Z</time>
      </trkpt>
      <trkpt lat="43.40835" lon="2.44175">
        <ele>858</ele>
        <time>2017-10-12T22:11:35Z</time>
      </trkpt>
      <trkpt lat="43.40832" lon="2.44175">
        <ele>857</ele>
        <time>2017-10-12T22:13:35Z</time>
      </trkpt>
      <trkpt lat="43.40833" lon="2.44172">
        <ele>858</ele>
        <time>2017-10-12T22:15:35Z</time>
      </trkpt>
      <trkpt lat="43.40835" lon="2.44157">
        <ele>860</ele>
        <time>2017-10-12T22:17:35Z</time>
      </trkpt>
      <trkpt lat="43.40838" lon="2.44145">
        <ele>862</ele>
        <time>2017-10-12T22:19:35Z</time>
      </trkpt>
      <trkpt lat="43.40841" lon="2.44132">
        <ele>865</ele>
        <time>2017-10-12T22:21:35Z</time>
      </trkpt>
      <trkpt lat="43.40847" lon="2.4412">
        <ele>869</ele>
        <time>2017-10-12T22:23:35Z</time>
      </trkpt>
      <trkpt lat="43.40847" lon="2.44106">
        <ele>870</ele>
        <time>2017-10-12T22:25:35Z</time>
      </trkpt>
      <trkpt lat="43.4085" lon="2.44105">
        <ele>872</ele>
        <time>2017-10-12T22:27:35Z</time>
      </trkpt>
      <trkpt lat="43.40854" lon="2.44105">
        <ele>874</ele>
        <time>2017-10-12T22:29:35Z</time>
      </trkpt>
      <trkpt lat="43.40851" lon="2.44105">
        <ele>872</ele>
        <time>2017-10-12T22:31:35Z</time>
      </trkpt>
      <trkpt lat="43.40854" lon="2.44103">
        <ele>874</ele>
        <time>2017-10-12T22:33:35Z</time>
      </trkpt>
      <trkpt lat="43.4085" lon="2.44109">
        <ele>871</ele>
        <time>2017-10-12T22:35:35Z</time>
      </trkpt>
      <trkpt lat="43.40847" lon="2.44112">
        <ele>870</ele>
        <time>2017-10-12T22:37:35Z</time>
      </trkpt>
      <trkpt lat="43.40847" lon="2.44114">
        <ele>870</ele>
        <time>2017-10-12T22:39:35Z</time>
      </trkpt>
      <trkpt lat="43.40848" lon="2.44111">
        <ele>870</ele>
        <time>2017-10-12T22:41:35Z</time>
      </trkpt>
      <trkpt lat="43.40851" lon="2.44113">
        <ele>871</ele>
        <time>2017-10-12T22:43:35Z</time>
      </trkpt>
      <trkpt lat="43.4085" lon="2.44108">
        <ele>872</ele>
        <time>2017-10-12T22:45:35Z</time>
      </trkpt>
      <trkpt lat="43.4084" lon="2.44086">
        <ele>870</ele>
        <time>2017-10-12T22:47:35Z</time>
      </trkpt>
      <trkpt lat="43.40837" lon="2.44072">
        <ele>870</ele>
        <time>2017-10-12T22:49:35Z</time>
      </trkpt>
      <trkpt lat="43.40833" lon="2.44058">
        <ele>871</ele>
        <time>2017-10-12T22:51:35Z</time>
      </trkpt>
      <trkpt lat="43.40829" lon="2.44046">
        <ele>871</ele>
        <time>2017-10-12T22:53:35Z</time>
      </trkpt>
      <trkpt lat="43.40823" lon="2.44027">
        <ele>872</ele>
        <time>2017-10-12T22:55:35Z</time>
      </trkpt>
      <trkpt lat="43.40819" lon="2.44008">
        <ele>873</ele>
        <time>2017-10-12T22:57:35Z</time>
      </trkpt>
      <trkpt lat="43.40814" lon="2.43991">
        <ele>874</ele>
        <time>2017-10-12T22:59:35Z</time>
      </trkpt>
      <trkpt lat="43.40805" lon="2.43978">
        <ele>873</ele>
        <time>2017-10-12T23:01:35Z</time>
      </trkpt>
      <trkpt lat="43.40793" lon="2.43963">
        <ele>871</ele>
        <time>2017-10-12T23:03:35Z</time>
      </trkpt>
      <trkpt lat="43.40786" lon="2.43941">
        <ele>873</ele>
        <time>2017-10-12T23:05:35Z</time>
      </trkpt>
      <trkpt lat="43.40785" lon="2.43927">
        <ele>875</ele>
        <time>2017-10-12T23:07:35Z</time>
      </trkpt>
      <trkpt lat="43.40787" lon="2.43915">
        <ele>878</ele>
        <time>2017-10-12T23:09:35Z</time>
      </trkpt>
      <trkpt lat="43.40786" lon="2.43898">
        <ele>879</ele>
        <time>2017-10-12T23:11:35Z</time>
      </trkpt>
      <trkpt lat="43.40781" lon="2.43882">
        <ele>879</ele>
        <time>2017-10-12T23:13:35Z</time>
      </trkpt>
      <trkpt lat="43.40778" lon="2.43884">
        <ele>878</ele>
        <time>2017-10-12T23:15:35Z</time>
      </trkpt>
      <trkpt lat="43.40771" lon="2.43892">
        <ele>876</ele>
        <time>2017-10-12T23:17:35Z</time>
      </trkpt>
      <trkpt lat="43.40771" lon="2.43883">
        <ele>877</ele>
        <time>2017-10-12T23:19:35Z</time>
      </trkpt>
      <trkpt lat="43.40769" lon="2.43885">
        <ele>876</ele>
        <time>2017-10-12T23:21:35Z</time>
      </trkpt>
      <trkpt lat="43.40772" lon="2.43891">
        <ele>876</ele>
        <time>2017-10-12T23:23:35Z</time>
      </trkpt>
      <trkpt lat="43.40771" lon="2.43885">
        <ele>877</ele>
        <time>2017-10-12T23:25:35Z</time>
      </trkpt>
      <trkpt lat="43.40774" lon="2.4388">
        <ele>878</ele>
        <time>2017-10-12T23:27:35Z</time>
      </trkpt>
      <trkpt lat="43.40773" lon="2.43882">
        <ele>877</ele>
        <time>2017-10-12T23:29:35Z</time>
      </trkpt>
      <trkpt lat="43.40776" lon="2.43874">
        <ele>878</ele>
        <time>2017-10-12T23:31:35Z</time>
      </trkpt>
      <trkpt lat="43.40774" lon="2.43861">
        <ele>879</ele>
        <time>2017-10-12T23:33:35Z</time>
      </trkpt>
      <trkpt lat="43.40772" lon="2.43844">
        <ele>880</ele>
        <time>2017-10-12T23:35:35Z</time>
      </trkpt>
      <trkpt lat="43.40771" lon="2.43828">
        <ele>881</ele>
        <time>2017-10-12T23:37:35Z</time>
      </trkpt>
      <trkpt lat="43.4077" lon="2.43818">
        <ele>881</ele>
        <time>2017-10-12T23:39:35Z</time>
      </trkpt>
      <trkpt lat="43.40771" lon="2.43815">
        <ele>881</ele>
        <time>2017-10-12T23:41:35Z</time>
      </trkpt>
      <trkpt lat="43.40773" lon="2.43788">
        <ele>882</ele>
        <time>2017-10-12T23:43:35Z</time>
      </trkpt>
      <trkpt lat="43.40776" lon="2.43759">
        <ele>884</ele>
        <time>2017-10-12T23:45:35Z</time>
      </trkpt>
      <trkpt lat="43.4078" lon="2.43738">
        <ele>884</ele>
        <time>2017-10-12T23:47:35Z</time>
      </trkpt>
      <trkpt lat="43.40785" lon="2.43722">
        <ele>884</ele>
        <time>2017-10-12T23:49:35Z</time>
      </trkpt>
      <trkpt lat="43.40791" lon="2.43705">
        <ele>885</ele>
        <time>2017-10-12T23:51:35Z</time>
      </trkpt>
      <trkpt lat="43.40793" lon="2.43702">
        <ele>885</ele>
        <time>2017-10-12T23:53:35Z</time>
      </trkpt>
      <trkpt lat="43.40796" lon="2.43705">
        <ele>885</ele>
        <time>2017-10-12T23:55:35Z</time>
      </trkpt>
      <trkpt lat="43.40804" lon="2.43716">
        <ele>887</ele>
        <time>2017-10-12T23:57:35Z</time>
      </trkpt>
      <trkpt lat="43.40841" lon="2.43724">
        <ele>891</ele>
        <time>2017-10-12T23:59:35Z</time>
      </trkpt>
      <trkpt lat="43.4085" lon="2.4373">
        <ele>893</ele>
        <time>2017-10-13T00:01:35Z</time>
      </trkpt>
      <trkpt lat="43.40858" lon="2.43739">
        <ele>894</ele>
        <time>2017-10-13T00:03:35Z</time>
      </trkpt>
      <trkpt lat="43.4087" lon="2.43739">
        <ele>896</ele>
        <time>2017-10-13T00:05:35Z</time>
      </trkpt>
      <trkpt lat="43.40883" lon="2.43736">
        <ele>898</ele>
        <time>2017-10-13T00:07:35Z</time>
      </trkpt>
      <trkpt lat="43.40894" lon="2.43737">
        <ele>900</ele>
        <time>2017-10-13T00:09:35Z</time>
      </trkpt>
      <trkpt lat="43.40902" lon="2.43742">
        <ele>901</ele>
        <time>2017-10-13T00:11:35Z</time>
      </trkpt>
      <trkpt lat="43.40905" lon="2.43744">
        <ele>902</ele>
        <time>2017-10-13T00:13:35Z</time>
      </trkpt>
      <trkpt lat="43.4091" lon="2.43748">
        <ele>903</ele>
        <time>2017-10-13T00:15:35Z</time>
      </trkpt>
      <trkpt lat="43.40924" lon="2.43763">
        <ele>906</ele>
        <time>2017-10-13T00:17:35Z</time>
      </trkpt>
      <trkpt lat="43.40943" lon="2.43775">
        <ele>909</ele>
        <time>2017-10-13T00:19:35Z</time>
      </trkpt>
      <trkpt lat="43.40947" lon="2.43778">
        <ele>910</ele>
        <time>2017-10-13T00:21:35Z</time>
      </trkpt>
      <trkpt lat="43.40948" lon="2.43778">
        <ele>910</ele>
        <time>2017-10-13T00:23:35Z</time>
      </trkpt>
      <trkpt lat="43.40952" lon="2.43783">
        <ele>911</ele>
        <time>2017-10-13T00:25:35Z</time>
      </trkpt>
      <trkpt lat="43.40957" lon="2.43788">
        <ele>912</ele>
        <time>2017-10-13T00:27:35Z</time>
      </trkpt>
      <trkpt lat="43.40974" lon="2.43812">
        <ele>916</ele>
        <time>2017-10-13T00:29:35Z</time>
      </trkpt>
      <trkpt lat="43.40982" lon="2.43823">
        <ele>918</ele>
        <time>2017-10-13T00:31:35Z</time>
      </trkpt>
      <trkpt lat="43.40992" lon="2.43837">
        <ele>921</ele>
        <time>2017-10-13T00:33:35Z</time>
      </trkpt>
      <trkpt lat="43.41002" lon="2.43847">
        <ele>923</ele>
        <time>2017-10-13T00:35:35Z</time>
      </trkpt>
      <trkpt lat="43.41012" lon="2.43856">
        <ele>926</ele>
        <time>2017-10-13T00:37:35Z</time>
      </trkpt>
      <trkpt lat="43.41013" lon="2.4387">
        <ele>927</ele>
        <time>2017-10-13T00:39:35Z</time>
      </trkpt>
      <trkpt lat="43.41015" lon="2.43889">
        <ele>929</ele>
        <time>2017-10-13T00:41:35Z</time>
      </trkpt>
      <trkpt lat="43.41022" lon="2.43897">
        <ele>931</ele>
        <time>2017-10-13T00:43:35Z</time>
      </trkpt>
      <trkpt lat="43.41029" lon="2.43902">
        <ele>932</ele>
        <time>2017-10-13T00:45:35Z</time>
      </trkpt>
      <trkpt lat="43.41036" lon="2.43913">
        <ele>934</ele>
        <time>2017-10-13T00:47:35Z</time>
      </trkpt>
      <trkpt lat="43.41043" lon="2.43923">
        <ele>936</ele>
        <time>2017-10-13T00:49:35Z</time>
      </trkpt>
      <trkpt lat="43.41054" lon="2.43933">
        <ele>938</ele>
        <time>2017-10-13T00:51:35Z</time>
      </trkpt>
      <trkpt lat="43.41061" lon="2.43943">
        <ele>940</ele>
        <time>2017-10-13T00:53:35Z</time>
      </trkpt>
      <trkpt lat="43.41063" lon="2.43945">
        <ele>941</ele>
        <time>2017-10-13T00:55:35Z</time>
      </trkpt>
      <trkpt lat="43.41063" lon="2.43942">
        <ele>940</ele>
        <time>2017-10-13T00:57:35Z</time>
      </trkpt>
      <trkpt lat="43.41063" lon="2.43941">
        <ele>940</ele>
        <time>2017-10-13T00:59:35Z</time>
      </trkpt>
      <trkpt lat="43.41068" lon="2.43954">
        <ele>942</ele>
        <time>2017-10-13T01:01:35Z</time>
      </trkpt>
      <trkpt lat="43.41077" lon="2.43964">
        <ele>944</ele>
        <time>2017-10-13T01:03:35Z</time>
      </trkpt>
      <trkpt lat="43.41082" lon="2.43973">
        <ele>946</ele>
        <time>2017-10-13T01:05:35Z</time>
      </trkpt>
      <trkpt lat="43.41089" lon="2.43979">
        <ele>947</ele>
        <time>2017-10-13T01:07:35Z</time>
      </trkpt>
      <trkpt lat="43.41096" lon="2.4399">
        <ele>949</ele>
        <time>2017-10-13T01:09:35Z</time>
      </trkpt>
      <trkpt lat="43.411" lon="2.43994">
        <ele>950</ele>
        <time>2017-10-13T01:11:35Z</time>
      </trkpt>
      <trkpt lat="43.41106" lon="2.44005">
        <ele>952</ele>
        <time>2017-10-13T01:13:35Z</time>
      </trkpt>
      <trkpt lat="43.41112" lon="2.44013">
        <ele>953</ele>
        <time>2017-10-13T01:15:35Z</time>
      </trkpt>
      <trkpt lat="43.41117" lon="2.44021">
        <ele>954</ele>
        <time>2017-10-13T01:17:35Z</time>
      </trkpt>
      <trkpt lat="43.4112" lon="2.4403">
        <ele>955</ele>
        <time>2017-10-13T01:19:35Z</time>
      </trkpt>
      <trkpt lat="43.41121" lon="2.44036">
        <ele>955</ele>
        <time>2017-10-13T01:21:35Z</time>
      </trkpt>
      <trkpt lat="43.41122" lon="2.44038">
        <ele>956</ele>
        <time>2017-10-13T01:23:35Z</time>
      </trkpt>
      <trkpt lat="43.41123" lon="2.44037">
        <ele>956</ele>
        <time>2017-10-13T01:25:35Z</time>
      </trkpt>
      <trkpt lat="43.41124" lon="2.44037">
        <ele>956</ele>
        <time>2017-10-13T01:27:35Z</time>
      </trkpt>
      <trkpt lat="43.41123" lon="2.44028">
        <ele>955</ele>
        <time>2017-10-13T01:29:35Z</time>
      </trkpt>
      <trkpt lat="43.41122" lon="2.44025">
        <ele>955</ele>
        <time>2017-10-13T01:31:35Z</time>
      </trkpt>
      <trkpt lat="43.41123" lon="2.44025">
        <ele>955</ele>
        <time>2017-10-13T01:33:35Z</time>
      </trkpt>
      <trkpt lat="43.4112" lon="2.44024">
        <ele>955</ele>
        <time>2017-10-13T01:35:35Z</time>
      </trkpt>
      <trkpt lat="43.41122" lon="2.44028">
        <ele>955</ele>
        <time>2017-10-13T01:37:35Z</time>
      </trkpt>
      <trkpt lat="43.41131" lon="2.44042">
        <ele>957</ele>
        <time>2017-10-13T01:39:35Z</time>
      </trkpt>
      <trkpt lat="43.4113" lon="2.44043">
        <ele>957</ele>
        <time>2017-10-13T01:41:35Z</time>
      </trkpt>
      <trkpt lat="43.41129" lon="2.4404">
        <ele>957</ele>
        <time>2017-10-13T01:43:35Z</time>
      </trkpt>
      <trkpt lat="43.41135" lon="2.44053">
        <ele>958</ele>
        <time>2017-10-13T01:45:35Z</time>
      </trkpt>
      <trkpt lat="43.41137" lon="2.44051">
        <ele>959</ele>
        <time>2017-10-13T01:47:35Z</time>
      </trkpt>
      <trkpt lat="43.41136" lon="2.4405">
        <ele>958</ele>
        <time>2017-10-13T01:49:35Z</time>
      </trkpt>
      <trkpt lat="43.41141" lon="2.44066">
        <ele>960</ele>
        <time>2017-10-13T01:51:35Z</time>
      </trkpt>
      <trkpt lat="43.41143" lon="2.44072">
        <ele>961</ele>
        <time>2017-10-13T01:53:35Z</time>
      </trkpt>
      <trkpt lat="43.41145" lon="2.44084">
        <ele>961</ele>
        <time>2017-10-13T01:55:35Z</time>
      </trkpt>
      <trkpt lat="43.4115" lon="2.44099">
        <ele>962</ele>
        <time>2017-10-13T01:57:35Z</time>
      </trkpt>
      <trkpt lat="43.41155" lon="2.4411">
        <ele>963</ele>
        <time>2017-10-13T01:59:35Z</time>
      </trkpt>
      <trkpt lat="43.4116" lon="2.44128">
        <ele>964</ele>
        <time>2017-10-13T02:01:35Z</time>
      </trkpt>
      <trkpt lat="43.41163" lon="2.44135">
        <ele>964</ele>
        <time>2017-10-13T02:03:35Z</time>
      </trkpt>
      <trkpt lat="43.41167" lon="2.44143">
        <ele>965</ele>
        <time>2017-10-13T02:05:35Z</time>
      </trkpt>
      <trkpt lat="43.41185" lon="2.44164">
        <ele>967</ele>
        <time>2017-10-13T02:07:35Z</time>
      </trkpt>
      <trkpt lat="43.41197" lon="2.44172">
        <ele>968</ele>
        <time>2017-10-13T02:09:35Z</time>
      </trkpt>
      <trkpt lat="43.41206" lon="2.44175">
        <ele>969</ele>
        <time>2017-10-13T02:11:35Z</time>
      </trkpt>
      <trkpt lat="43.41215" lon="2.44173">
        <ele>970</ele>
        <time>2017-10-13T02:13:35Z</time>
      </trkpt>
      <trkpt lat="43.41222" lon="2.44164">
        <ele>972</ele>
        <time>2017-10-13T02:15:35Z</time>
      </trkpt>
      <trkpt lat="43.41228" lon="2.44154">
        <ele>972</ele>
        <time>2017-10-13T02:17:35Z</time>
      </trkpt>
      <trkpt lat="43.41235" lon="2.44145">
        <ele>973</ele>
        <time>2017-10-13T02:19:35Z</time>
      </trkpt>
      <trkpt lat="43.41244" lon="2.44136">
        <ele>975</ele>
        <time>2017-10-13T02:21:35Z</time>
      </trkpt>
      <trkpt lat="43.41249" lon="2.44133">
        <ele>975</ele>
        <time>2017-10-13T02:23:35Z</time>
      </trkpt>
      <trkpt lat="43.41261" lon="2.4413">
        <ele>976</ele>
        <time>2017-10-13T02:25:35Z</time>
      </trkpt>
      <trkpt lat="43.4127" lon="2.44126">
        <ele>977</ele>
        <time>2017-10-13T02:27:35Z</time>
      </trkpt>
      <trkpt lat="43.41281" lon="2.4412">
        <ele>979</ele>
        <time>2017-10-13T02:29:35Z</time>
      </trkpt>
      <trkpt lat="43.41294" lon="2.44112">
        <ele>980</ele>
        <time>2017-10-13T02:31:35Z</time>
      </trkpt>
      <trkpt lat="43.41315" lon="2.441">
        <ele>983</ele>
        <time>2017-10-13T02:33:35Z</time>
      </trkpt>
      <trkpt lat="43.41315" lon="2.44101">
        <ele>983</ele>
        <time>2017-10-13T02:35:35Z</time>
      </trkpt>
      <trkpt lat="43.41315" lon="2.44098">
        <ele>983</ele>
        <time>2017-10-13T02:37:35Z</time>
      </trkpt>
      <trkpt lat="43.41315" lon="2.44097">
        <ele>984</ele>
        <time>2017-10-13T02:39:35Z</time>
      </trkpt>
      <trkpt lat="43.41317" lon="2.441">
        <ele>984</ele>
        <time>2017-10-13T02:41:35Z</time>
      </trkpt>
      <trkpt lat="43.41318" lon="2.44102">
        <ele>983</ele>
        <time>2017-10-13T02:43:35Z</time>
      </trkpt>
      <trkpt lat="43.41316" lon="2.44099">
        <ele>983</ele>
        <time>2017-10-13T02:45:35Z</time>
      </trkpt>
      <trkpt lat="43.41315" lon="2.44097">
        <ele>984</ele>
        <time>2017-10-13T02:47:35Z</time>
      </trkpt>
      <trkpt lat="43.4132" lon="2.44094">
        <ele>984</ele>
        <time>2017-10-13T02:49:35Z</time>
      </trkpt>
      <trkpt lat="43.41331" lon="2.44087">
        <ele>986</ele>
        <time>2017-10-13T02:51:35Z</time>
      </trkpt>
      <trkpt lat="43.41359" lon="2.44064">
        <ele>987</ele>
        <time>2017-10-13T02:53:35Z</time>
      </trkpt>
      <trkpt lat="43.4137" lon="2.44054">
        <ele>988</ele>
        <time>2017-10-13T02:55:35Z</time>
      </trkpt>
      <trkpt lat="43.4138" lon="2.44047">
        <ele>988</ele>
        <time>2017-10-13T02:57:35Z</time>
      </trkpt>
      <trkpt lat="43.41384" lon="2.44043">
        <ele>989</ele>
        <time>2017-10-13T02:59:35Z</time>
      </trkpt>
      <trkpt lat="43.41395" lon="2.44034">
        <ele>990</ele>
        <time>2017-10-13T03:01:35Z</time>
      </trkpt>
      <trkpt lat="43.41409" lon="2.44021">
        <ele>992</ele>
        <time>2017-10-13T03:03:35Z</time>
      </trkpt>
      <trkpt lat="43.41422" lon="2.44011">
        <ele>993</ele>
        <time>2017-10-13T03:05:35Z</time>
      </trkpt>
      <trkpt lat="43.41433" lon="2.44007">
        <ele>994</ele>
        <time>2017-10-13T03:07:35Z</time>
      </trkpt>
      <trkpt lat="43.41443" lon="2.43999">
        <ele>995</ele>
        <time>2017-10-13T03:09:35Z</time>
      </trkpt>
      <trkpt lat="43.41449" lon="2.43989">
        <ele>995</ele>
        <time>2017-10-13T03:11:35Z</time>
      </trkpt>
      <trkpt lat="43.41455" lon="2.43978">
        <ele>996</ele>
        <time>2017-10-13T03:13:35Z</time>
      </trkpt>
      <trkpt lat="43.41466" lon="2.43968">
        <ele>997</ele>
        <time>2017-10-13T03:15:35Z</time>
      </trkpt>
      <trkpt lat="43.41482" lon="2.43962">
        <ele>999</ele>
        <time>2017-10-13T03:17:35Z</time>
      </trkpt>
      <trkpt lat="43.41496" lon="2.43954">
        <ele>1001</ele>
        <time>2017-10-13T03:19:35Z</time>
      </trkpt>
      <trkpt lat="43.41511" lon="2.43945">
        <ele>1002</ele>
        <time>2017-10-13T03:21:35Z</time>
      </trkpt>
      <trkpt lat="43.41525" lon="2.43939">
        <ele>1002</ele>
        <time>2017-10-13T03:23:35Z</time>
      </trkpt>
      <trkpt lat="43.41537" lon="2.43933">
        <ele>1003</ele>
        <time>2017-10-13T03:25:35Z</time>
      </trkpt>
      <trkpt lat="43.41547" lon="2.43922">
        <ele>1004</ele>
        <time>2017-10-13T03:27:35Z</time>
      </trkpt>
      <trkpt lat="43.41554" lon="2.43912">
        <ele>1005</ele>
        <time>2017-10-13T03:29:35Z</time>
      </trkpt>
      <trkpt lat="43.41565" lon="2.439">
        <ele>1006</ele>
        <time>2017-10-13T03:31:35Z</time>
      </trkpt>
      <trkpt lat="43.41572" lon="2.43893">
        <ele>1007</ele>
        <time>2017-10-13T03:33:35Z</time>
      </trkpt>
      <trkpt lat="43.41578" lon="2.43887">
        <ele>1008</ele>
        <time>2017-10-13T03:35:35Z</time>
      </trkpt>
      <trkpt lat="43.41582" lon="2.43882">
        <ele>1009</ele>
        <time>2017-10-13T03:37:35Z</time>
      </trkpt>
      <trkpt lat="43.4159" lon="2.43877">
        <ele>1009</ele>
        <time>2017-10-13T03:39:35Z</time>
      </trkpt>
      <trkpt lat="43.41599" lon="2.43871">
        <ele>1010</ele>
        <time>2017-10-13T03:41:35Z</time>
      </trkpt>
      <trkpt lat="43.41604" lon="2.43867">
        <ele>1011</ele>
        <time>2017-10-13T03:43:35Z</time>
      </trkpt>
      <trkpt lat="43.41615" lon="2.43861">
        <ele>1012</ele>
        <time>2017-10-13T03:45:35Z</time>
      </trkpt>
      <trkpt lat="43.41624" lon="2.43854">
        <ele>1013</ele>
        <time>2017-10-13T03:47:35Z</time>
      </trkpt>
      <trkpt lat="43.41632" lon="2.43843">
        <ele>1015</ele>
        <time>2017-10-13T03:49:35Z</time>
      </trkpt>
      <trkpt lat="43.41637" lon="2.43829">
        <ele>1017</ele>
        <time>2017-10-13T03:51:35Z</time>
      </trkpt>
      <trkpt lat="43.4164" lon="2.43813">
        <ele>1019</ele>
        <time>2017-10-13T03:53:35Z</time>
      </trkpt>
      <trkpt lat="43.41643" lon="2.438">
        <ele>1020</ele>
        <time>2017-10-13T03:55:35Z</time>
      </trkpt>
      <trkpt lat="43.41649" lon="2.43789">
        <ele>1021</ele>
        <time>2017-10-13T03:57:35Z</time>
      </trkpt>
      <trkpt lat="43.41651" lon="2.43787">
        <ele>1022</ele>
        <time>2017-10-13T03:59:35Z</time>
      </trkpt>
      <trkpt lat="43.41656" lon="2.43777">
        <ele>1023</ele>
        <time>2017-10-13T04:01:35Z</time>
      </trkpt>
      <trkpt lat="43.41663" lon="2.43769">
        <ele>1025</ele>
        <time>2017-10-13T04:03:35Z</time>
      </trkpt>
      <trkpt lat="43.41672" lon="2.43758">
        <ele>1027</ele>
        <time>2017-10-13T04:05:35Z</time>
      </trkpt>
      <trkpt lat="43.41678" lon="2.43749">
        <ele>1028</ele>
        <time>2017-10-13T04:07:35Z</time>
      </trkpt>
      <trkpt lat="43.41684" lon="2.43739">
        <ele>1029</ele>
        <time>2017-10-13T04:09:35Z</time>
      </trkpt>
      <trkpt lat="43.41686" lon="2.43738">
        <ele>1030</ele>
        <time>2017-10-13T04:11:35Z</time>
      </trkpt>
      <trkpt lat="43.41689" lon="2.43739">
        <ele>1030</ele>
        <time>2017-10-13T04:13:35Z</time>
      </trkpt>
      <trkpt lat="43.4169" lon="2.43741">
        <ele>1030</ele>
        <time>2017-10-13T04:15:35Z</time>
      </trkpt>
      <trkpt lat="43.41693" lon="2.43731">
        <ele>1031</ele>
        <time>2017-10-13T04:17:35Z</time>
      </trkpt>
      <trkpt lat="43.41698" lon="2.43723">
        <ele>1032</ele>
        <time>2017-10-13T04:19:35Z</time>
      </trkpt>
      <trkpt lat="43.41714" lon="2.43705">
        <ele>1036</ele>
        <time>2017-10-13T04:21:35Z</time>
      </trkpt>
      <trkpt lat="43.41719" lon="2.43698">
        <ele>1037</ele>
        <time>2017-10-13T04:23:35Z</time>
      </trkpt>
      <trkpt lat="43.41722" lon="2.43695">
        <ele>1038</ele>
        <time>2017-10-13T04:25:35Z</time>
      </trkpt>
      <trkpt lat="43.41727" lon="2.43686">
        <ele>1040</ele>
        <time>2017-10-13T04:27:35Z</time>
      </trkpt>
      <trkpt lat="43.41728" lon="2.43679">
        <ele>1040</ele>
        <time>2017-10-13T04:29:35Z</time>
      </trkpt>
      <trkpt lat="43.41733" lon="2.43662">
        <ele>1043</ele>
        <time>2017-10-13T04:31:35Z</time>
      </trkpt>
      <trkpt lat="43.41736" lon="2.43664">
        <ele>1043</ele>
        <time>2017-10-13T04:33:35Z</time>
      </trkpt>
      <trkpt lat="43.41738" lon="2.43664">
        <ele>1044</ele>
        <time>2017-10-13T04:35:35Z</time>
      </trkpt>
      <trkpt lat="43.41738" lon="2.43654">
        <ele>1044</ele>
        <time>2017-10-13T04:37:35Z</time>
      </trkpt>
      <trkpt lat="43.41748" lon="2.43637">
        <ele>1046</ele>
        <time>2017-10-13T04:39:35Z</time>
      </trkpt>
      <trkpt lat="43.41754" lon="2.43632">
        <ele>1047</ele>
        <time>2017-10-13T04:41:35Z</time>
      </trkpt>
      <trkpt lat="43.41769" lon="2.43625">
        <ele>1049</ele>
        <time>2017-10-13T04:43:35Z</time>
      </trkpt>
      <trkpt lat="43.41776" lon="2.43625">
        <ele>1050</ele>
        <time>2017-10-13T04:45:35Z</time>
      </trkpt>
      <trkpt lat="43.41794" lon="2.43622">
        <ele>1054</ele>
        <time>2017-10-13T04:47:35Z</time>
      </trkpt>
      <trkpt lat="43.41801" lon="2.43621">
        <ele>1055</ele>
        <time>2017-10-13T04:49:35Z</time>
      </trkpt>
      <trkpt lat="43.4181" lon="2.43617">
        <ele>1056</ele>
        <time>2017-10-13T04:51:35Z</time>
      </trkpt>
      <trkpt lat="43.41832" lon="2.43607">
        <ele>1061</ele>
        <time>2017-10-13T04:53:35Z</time>
      </trkpt>
      <trkpt lat="43.41842" lon="2.43603">
        <ele>1062</ele>
        <time>2017-10-13T04:55:35Z</time>
      </trkpt>
      <trkpt lat="43.4186" lon="2.43596">
        <ele>1063</ele>
        <time>2017-10-13T04:57:35Z</time>
      </trkpt>
      <trkpt lat="43.41859" lon="2.43594">
        <ele>1063</ele>
        <time>2017-10-13T04:59:35Z</time>
      </trkpt>
      <trkpt lat="43.41862" lon="2.43593">
        <ele>1063</ele>
        <time>2017-10-13T05:01:35Z</time>
      </trkpt>
      <trkpt lat="43.41875" lon="2.43591">
        <ele>1064</ele>
        <time>2017-10-13T05:03:35Z</time>
      </trkpt>
      <trkpt lat="43.4188" lon="2.43592">
        <ele>1064</ele>
        <time>2017-10-13T05:05:35Z</time>
      </trkpt>
      <trkpt lat="43.41892" lon="2.43601">
        <ele>1063</ele>
        <time>2017-10-13T05:07:35Z</time>
      </trkpt>
      <trkpt lat="43.41906" lon="2.43607">
        <ele>1063</ele>
        <time>2017-10-13T05:09:35Z</time>
      </trkpt>
      <trkpt lat="43.4192" lon="2.43609">
        <ele>1063</ele>
        <time>2017-10-13T05:11:35Z</time>
      </trkpt>
      <trkpt lat="43.4193" lon="2.43615">
        <ele>1061</ele>
        <time>2017-10-13T05:13:35Z</time>
      </trkpt>
      <trkpt lat="43.41934" lon="2.43618">
        <ele>1061</ele>
        <time>2017-10-13T05:15:35Z</time>
      </trkpt>
      <trkpt lat="43.41935" lon="2.43621">
        <ele>1060</ele>
        <time>2017-10-13T05:17:35Z</time>
      </trkpt>
      <trkpt lat="43.41935" lon="2.43627">
        <ele>1060</ele>
        <time>2017-10-13T05:19:35Z</time>
      </trkpt>
      <trkpt lat="43.41951" lon="2.43648">
        <ele>1056</ele>
        <time>2017-10-13T05:21:35Z</time>
      </trkpt>
      <trkpt lat="43.41956" lon="2.43663">
        <ele>1054</ele>
        <time>2017-10-13T05:23:35Z</time>
      </trkpt>
      <trkpt lat="43.41958" lon="2.43679">
        <ele>1052</ele>
        <time>2017-10-13T05:25:35Z</time>
      </trkpt>
      <trkpt lat="43.4196" lon="2.43694">
        <ele>1050</ele>
        <time>2017-10-13T05:27:35Z</time>
      </trkpt>
      <trkpt lat="43.41967" lon="2.43709">
        <ele>1048</ele>
        <time>2017-10-13T05:29:35Z</time>
      </trkpt>
      <trkpt lat="43.41984" lon="2.43716">
        <ele>1047</ele>
        <time>2017-10-13T05:31:35Z</time>
      </trkpt>
      <trkpt lat="43.42001" lon="2.43722">
        <ele>1046</ele>
        <time>2017-10-13T05:33:35Z</time>
      </trkpt>
      <trkpt lat="43.42018" lon="2.4373">
        <ele>1048</ele>
        <time>2017-10-13T05:35:35Z</time>
      </trkpt>
      <trkpt lat="43.42034" lon="2.43734">
        <ele>1050</ele>
        <time>2017-10-13T05:37:35Z</time>
      </trkpt>
      <trkpt lat="43.42048" lon="2.43737">
        <ele>1051</ele>
        <time>2017-10-13T05:39:35Z</time>
      </trkpt>
      <trkpt lat="43.42059" lon="2.43738">
        <ele>1053</ele>
        <time>2017-10-13T05:41:35Z</time>
      </trkpt>
      <trkpt lat="43.42079" lon="2.43739">
        <ele>1056</ele>
        <time>2017-10-13T05:43:35Z</time>
      </trkpt>
      <trkpt lat="43.42089" lon="2.43738">
        <ele>1057</ele>
        <time>2017-10-13T05:45:35Z</time>
      </trkpt>
      <trkpt lat="43.42101" lon="2.43736">
        <ele>1058</ele>
        <time>2017-10-13T05:47:35Z</time>
      </trkpt>
      <trkpt lat="43.42112" lon="2.43735">
        <ele>1059</ele>
        <time>2017-10-13T05:49:35Z</time>
      </trkpt>
      <trkpt lat="43.42129" lon="2.4374">
        <ele>1060</ele>
        <time>2017-10-13T05:51:35Z</time>
      </trkpt>
      <trkpt lat="43.42142" lon="2.43749">
        <ele>1061</ele>
        <time>2017-10-13T05:53:35Z</time>
      </trkpt>
      <trkpt lat="43.42161" lon="2.43757">
        <ele>1062</ele>
        <time>2017-10-13T05:55:35Z</time>
      </trkpt>
      <trkpt lat="43.42164" lon="2.43757">
        <ele>1062</ele>
        <time>2017-10-13T05:57:35Z</time>
      </trkpt>
      <trkpt lat="43.42175" lon="2.43762">
        <ele>1061</ele>
        <time>2017-10-13T05:59:35Z</time>
      </trkpt>
      <trkpt lat="43.42176" lon="2.4378">
        <ele>1059</ele>
        <time>2017-10-13T06:01:35Z</time>
      </trkpt>
      <trkpt lat="43.42182" lon="2.4379">
        <ele>1058</ele>
        <time>2017-10-13T06:03:35Z</time>
      </trkpt>
      <trkpt lat="43.4219" lon="2.43804">
        <ele>1056</ele>
        <time>2017-10-13T06:05:35Z</time>
      </trkpt>
      <trkpt lat="43.42191" lon="2.43817">
        <ele>1055</ele>
        <time>2017-10-13T06:07:35Z</time>
      </trkpt>
      <trkpt lat="43.42191" lon="2.43831">
        <ele>1053</ele>
        <time>2017-10-13T06:09:35Z</time>
      </trkpt>
      <trkpt lat="43.42197" lon="2.43857">
        <ele>1050</ele>
        <time>2017-10-13T06:11:35Z</time>
      </trkpt>
      <trkpt lat="43.42207" lon="2.43873">
        <ele>1047</ele>
        <time>2017-10-13T06:13:35Z</time>
      </trkpt>
      <trkpt lat="43.42215" lon="2.43893">
        <ele>1044</ele>
        <time>2017-10-13T06:15:35Z</time>
      </trkpt>
      <trkpt lat="43.42223" lon="2.43911">
        <ele>1042</ele>
        <time>2017-10-13T06:17:35Z</time>
      </trkpt>
      <trkpt lat="43.42231" lon="2.43925">
        <ele>1040</ele>
        <time>2017-10-13T06:19:35Z</time>
      </trkpt>
      <trkpt lat="43.42243" lon="2.4394">
        <ele>1038</ele>
        <time>2017-10-13T06:21:35Z</time>
      </trkpt>
      <trkpt lat="43.4225" lon="2.43956">
        <ele>1036</ele>
        <time>2017-10-13T06:23:35Z</time>
      </trkpt>
      <trkpt lat="43.42248" lon="2.43976">
        <ele>1034</ele>
        <time>2017-10-13T06:25:35Z</time>
      </trkpt>
      <trkpt lat="43.42246" lon="2.43996">
        <ele>1032</ele>
        <time>2017-10-13T06:27:35Z</time>
      </trkpt>
      <trkpt lat="43.42247" lon="2.44003">
        <ele>1032</ele>
        <time>2017-10-13T06:29:35Z</time>
      </trkpt>
      <trkpt lat="43.42248" lon="2.44002">
        <ele>1032</ele>
        <time>2017-10-13T06:31:35Z</time>
      </trkpt>
      <trkpt lat="43.42247" lon="2.44003">
        <ele>1032</ele>
        <time>2017-10-13T06:33:35Z</time>
      </trkpt>
      <trkpt lat="43.42252" lon="2.44014">
        <ele>1032</ele>
        <time>2017-10-13T06:35:35Z</time>
      </trkpt>
      <trkpt lat="43.42269" lon="2.44037">
        <ele>1031</ele>
        <time>2017-10-13T06:37:35Z</time>
      </trkpt>
      <trkpt lat="43.42276" lon="2.4405">
        <ele>1030</ele>
        <time>2017-10-13T06:39:35Z</time>
      </trkpt>
      <trkpt lat="43.42286" lon="2.44077">
        <ele>1030</ele>
        <time>2017-10-13T06:41:35Z</time>
      </trkpt>
      <trkpt lat="43.4229" lon="2.44094">
        <ele>1031</ele>
        <time>2017-10-13T06:43:35Z</time>
      </trkpt>
      <trkpt lat="43.42293" lon="2.4412">
        <ele>1033</ele>
        <time>2017-10-13T06:45:35Z</time>
      </trkpt>
      <trkpt lat="43.42294" lon="2.44127">
        <ele>1034</ele>
        <time>2017-10-13T06:47:35Z</time>
      </trkpt>
      <trkpt lat="43.42302" lon="2.44134">
        <ele>1035</ele>
        <time>2017-10-13T06:49:35Z</time>
      </trkpt>
      <trkpt lat="43.42311" lon="2.4414">
        <ele>1036</ele>
        <time>2017-10-13T06:51:35Z</time>
      </trkpt>
      <trkpt lat="43.4232" lon="2.44151">
        <ele>1038</ele>
        <time>2017-10-13T06:53:35Z</time>
      </trkpt>
      <trkpt lat="43.42315" lon="2.44167">
        <ele>1039</ele>
        <time>2017-10-13T06:55:35Z</time>
      </trkpt>
      <trkpt lat="43.42316" lon="2.44186">
        <ele>1042</ele>
        <time>2017-10-13T06:57:35Z</time>
      </trkpt>
      <trkpt lat="43.4231" lon="2.44205">
        <ele>1043</ele>
        <time>2017-10-13T06:59:35Z</time>
      </trkpt>
      <trkpt lat="43.423" lon="2.44223">
        <ele>1044</ele>
        <time>2017-10-13T07:01:35Z</time>
      </trkpt>
      <trkpt lat="43.42292" lon="2.44241">
        <ele>1046</ele>
        <time>2017-10-13T07:03:35Z</time>
      </trkpt>
      <trkpt lat="43.42284" lon="2.44263">
        <ele>1047</ele>
        <time>2017-10-13T07:05:35Z</time>
      </trkpt>
      <trkpt lat="43.42278" lon="2.44283">
        <ele>1049</ele>
        <time>2017-10-13T07:07:35Z</time>
      </trkpt>
      <trkpt lat="43.42273" lon="2.443">
        <ele>1050</ele>
        <time>2017-10-13T07:09:35Z</time>
      </trkpt>
      <trkpt lat="43.42268" lon="2.44319">
        <ele>1051</ele>
        <time>2017-10-13T07:11:35Z</time>
      </trkpt>
      <trkpt lat="43.42261" lon="2.44338">
        <ele>1052</ele>
        <time>2017-10-13T07:13:35Z</time>
      </trkpt>
      <trkpt lat="43.4225" lon="2.44361">
        <ele>1053</ele>
        <time>2017-10-13T07:15:35Z</time>
      </trkpt>
      <trkpt lat="43.42243" lon="2.4438">
        <ele>1053</ele>
        <time>2017-10-13T07:17:35Z</time>
      </trkpt>
      <trkpt lat="43.42232" lon="2.44403">
        <ele>1053</ele>
        <time>2017-10-13T07:19:35Z</time>
      </trkpt>
      <trkpt lat="43.42223" lon="2.44424">
        <ele>1053</ele>
        <time>2017-10-13T07:21:35Z</time>
      </trkpt>
      <trkpt lat="43.42218" lon="2.44441">
        <ele>1053</ele>
        <time>2017-10-13T07:23:35Z</time>
      </trkpt>
      <trkpt lat="43.42211" lon="2.4446">
        <ele>1054</ele>
        <time>2017-10-13T07:25:35Z</time>
      </trkpt>
      <trkpt lat="43.42205" lon="2.44477">
        <ele>1054</ele>
        <time>2017-10-13T07:27:35Z</time>
      </trkpt>
      <trkpt lat="43.42199" lon="2.44496">
        <ele>1054</ele>
        <time>2017-10-13T07:29:35Z</time>
      </trkpt>
      <trkpt lat="43.4219" lon="2.4452">
        <ele>1054</ele>
        <time>2017-10-13T07:31:35Z</time>
      </trkpt>
      <trkpt lat="43.42182" lon="2.44538">
        <ele>1054</ele>
        <time>2017-10-13T07:33:35Z</time>
      </trkpt>
      <trkpt lat="43.42175" lon="2.44557">
        <ele>1054</ele>
        <time>2017-10-13T07:35:35Z</time>
      </trkpt>
      <trkpt lat="43.42167" lon="2.44574">
        <ele>1053</ele>
        <time>2017-10-13T07:37:35Z</time>
      </trkpt>
      <trkpt lat="43.42159" lon="2.44591">
        <ele>1052</ele>
        <time>2017-10-13T07:39:35Z</time>
      </trkpt>
      <trkpt lat="43.42156" lon="2.44611">
        <ele>1053</ele>
        <time>2017-10-13T07:41:35Z</time>
      </trkpt>
      <trkpt lat="43.42151" lon="2.44631">
        <ele>1053</ele>
        <time>2017-10-13T07:43:35Z</time>
      </trkpt>
      <trkpt lat="43.42131" lon="2.4467">
        <ele>1050</ele>
        <time>2017-10-13T07:45:35Z</time>
      </trkpt>
      <trkpt lat="43.42119" lon="2.44705">
        <ele>1047</ele>
        <time>2017-10-13T07:47:35Z</time>
      </trkpt>
      <trkpt lat="43.42111" lon="2.44721">
        <ele>1045</ele>
        <time>2017-10-13T07:49:35Z</time>
      </trkpt>
      <trkpt lat="43.42104" lon="2.44738">
        <ele>1043</ele>
        <time>2017-10-13T07:51:35Z</time>
      </trkpt>
      <trkpt lat="43.4211" lon="2.44747">
        <ele>1046</ele>
        <time>2017-10-13T07:53:35Z</time>
      </trkpt>
      <trkpt lat="43.42115" lon="2.44754">
        <ele>1047</ele>
        <time>2017-10-13T07:55:35Z</time>
      </trkpt>
      <trkpt lat="43.42121" lon="2.4476">
        <ele>1049</ele>
        <time>2017-10-13T07:57:35Z</time>
      </trkpt>
      <trkpt lat="43.42128" lon="2.44765">
        <ele>1051</ele>
        <time>2017-10-13T07:59:35Z</time>
      </trkpt>
      <trkpt lat="43.42136" lon="2.44768">
        <ele>1054</ele>
        <time>2017-10-13T08:01:35Z</time>
      </trkpt>
      <trkpt lat="43.42141" lon="2.44774">
        <ele>1055</ele>
        <time>2017-10-13T08:03:35Z</time>
      </trkpt>
      <trkpt lat="43.42148" lon="2.44779">
        <ele>1057</ele>
        <time>2017-10-13T08:05:35Z</time>
      </trkpt>
      <trkpt lat="43.42156" lon="2.44786">
        <ele>1060</ele>
        <time>2017-10-13T08:07:35Z</time>
      </trkpt>
      <trkpt lat="43.42163" lon="2.44791">
        <ele>1062</ele>
        <time>2017-10-13T08:09:35Z</time>
      </trkpt>
      <trkpt lat="43.42167" lon="2.44793">
        <ele>1064</ele>
        <time>2017-10-13T08:11:35Z</time>
      </trkpt>
      <trkpt lat="43.42166" lon="2.44793">
        <ele>1063</ele>
        <time>2017-10-13T08:13:35Z</time>
      </trkpt>
      <trkpt lat="43.42166" lon="2.44792">
        <ele>1063</ele>
        <time>2017-10-13T08:15:35Z</time>
      </trkpt>
      <trkpt lat="43.42167" lon="2.44793">
        <ele>1064</ele>
        <time>2017-10-13T08:17:35Z</time>
      </trkpt>
      <trkpt lat="43.42166" lon="2.44799">
        <ele>1063</ele>
        <time>2017-10-13T08:19:35Z</time>
      </trkpt>
      <trkpt lat="43.42165" lon="2.44796">
        <ele>1063</ele>
        <time>2017-10-13T08:21:35Z</time>
      </trkpt>
      <trkpt lat="43.42167" lon="2.44796">
        <ele>1064</ele>
        <time>2017-10-13T08:23:35Z</time>
      </trkpt>
      <trkpt lat="43.42167" lon="2.44795">
        <ele>1064</ele>
        <time>2017-10-13T08:25:35Z</time>
      </trkpt>
      <trkpt lat="43.42168" lon="2.44794">
        <ele>1064</ele>
        <time>2017-10-13T08:27:35Z</time>
      </trkpt>
      <trkpt lat="43.42167" lon="2.44793">
        <ele>1064</ele>
        <time>2017-10-13T08:29:35Z</time>
      </trkpt>
      <trkpt lat="43.4217" lon="2.44794">
        <ele>1064</ele>
        <time>2017-10-13T08:31:35Z</time>
      </trkpt>
      <trkpt lat="43.4217" lon="2.44794">
        <ele>1064</ele>
        <time>2017-10-13T08:33:35Z</time>
      </trkpt>
      <trkpt lat="43.42171" lon="2.44795">
        <ele>1065</ele>
        <time>2017-10-13T08:35:35Z</time>
      </trkpt>
      <trkpt lat="43.42173" lon="2.44793">
        <ele>1065</ele>
        <time>2017-10-13T08:37:35Z</time>
      </trkpt>
      <trkpt lat="43.42178" lon="2.44792">
        <ele>1067</ele>
        <time>2017-10-13T08:39:35Z</time>
      </trkpt>
      <trkpt lat="43.42181" lon="2.44792">
        <ele>1067</ele>
        <time>2017-10-13T08:41:35Z</time>
      </trkpt>
      <trkpt lat="43.42187" lon="2.44795">
        <ele>1069</ele>
        <time>2017-10-13T08:43:35Z</time>
      </trkpt>
      <trkpt lat="43.42192" lon="2.44796">
        <ele>1070</ele>
        <time>2017-10-13T08:45:35Z</time>
      </trkpt>
      <trkpt lat="43.42197" lon="2.44799">
        <ele>1072</ele>
        <time>2017-10-13T08:47:35Z</time>
      </trkpt>
      <trkpt lat="43.42213" lon="2.44811">
        <ele>1076</ele>
        <time>2017-10-13T08:49:35Z</time>
      </trkpt>
      <trkpt lat="43.42221" lon="2.44818">
        <ele>1079</ele>
        <time>2017-10-13T08:51:35Z</time>
      </trkpt>
      <trkpt lat="43.42229" lon="2.44825">
        <ele>1081</ele>
        <time>2017-10-13T08:53:35Z</time>
      </trkpt>
      <trkpt lat="43.42236" lon="2.44831">
        <ele>1083</ele>
        <time>2017-10-13T08:55:35Z</time>
      </trkpt>
      <trkpt lat="43.42244" lon="2.44836">
        <ele>1085</ele>
        <time>2017-10-13T08:57:35Z</time>
      </trkpt>
      <trkpt lat="43.42252" lon="2.4484">
        <ele>1087</ele>
        <time>2017-10-13T08:59:35Z</time>
      </trkpt>
      <trkpt lat="43.42258" lon="2.44845">
        <ele>1088</ele>
        <time>2017-10-13T09:01:35Z</time>
      </trkpt>
      <trkpt lat="43.42273" lon="2.44859">
        <ele>1090</ele>
        <time>2017-10-13T09:03:35Z</time>
      </trkpt>
      <trkpt lat="43.42281" lon="2.44865">
        <ele>1091</ele>
        <time>2017-10-13T09:05:35Z</time>
      </trkpt>
      <trkpt lat="43.42294" lon="2.44873">
        <ele>1093</ele>
        <time>2017-10-13T09:07:35Z</time>
      </trkpt>
      <trkpt lat="43.42309" lon="2.4489">
        <ele>1095</ele>
        <time>2017-10-13T09:09:35Z</time>
      </trkpt>
      <trkpt lat="43.4232" lon="2.44896">
        <ele>1098</ele>
        <time>2017-10-13T09:11:35Z</time>
      </trkpt>
      <trkpt lat="43.42341" lon="2.44911">
        <ele>1100</ele>
        <time>2017-10-13T09:13:35Z</time>
      </trkpt>
      <trkpt lat="43.42349" lon="2.44918">
        <ele>1101</ele>
        <time>2017-10-13T09:15:35Z</time>
      </trkpt>
      <trkpt lat="43.42356" lon="2.44919">
        <ele>1101</ele>
        <time>2017-10-13T09:17:35Z</time>
      </trkpt>
      <trkpt lat="43.42357" lon="2.44918">
        <ele>1101</ele>
        <time>2017-10-13T09:19:35Z</time>
      </trkpt>
      <trkpt lat="43.42357" lon="2.44922">
        <ele>1101</ele>
        <time>2017-10-13T09:21:35Z</time>
      </trkpt>
      <trkpt lat="43.42354" lon="2.44925">
        <ele>1101</ele>
        <time>2017-10-13T09:23:35Z</time>
      </trkpt>
      <trkpt lat="43.42358" lon="2.44927">
        <ele>1101</ele>
        <time>2017-10-13T09:25:35Z</time>
      </trkpt>
      <trkpt lat="43.42368" lon="2.4493">
        <ele>1101</ele>
        <time>2017-10-13T09:27:35Z</time>
      </trkpt>
      <trkpt lat="43.42387" lon="2.44944">
        <ele>1102</ele>
        <time>2017-10-13T09:29:35Z</time>
      </trkpt>
      <trkpt lat="43.42418" lon="2.44969">
        <ele>1104</ele>
        <time>2017-10-13T09:31:35Z</time>
      </trkpt>
      <trkpt lat="43.42438" lon="2.44982">
        <ele>1104</ele>
        <time>2017-10-13T09:33:35Z</time>
      </trkpt>
      <trkpt lat="43.42456" lon="2.44993">
        <ele>1104</ele>
        <time>2017-10-13T09:35:35Z</time>
      </trkpt>
      <trkpt lat="43.42473" lon="2.45002">
        <ele>1104</ele>
        <time>2017-10-13T09:37:35Z</time>
      </trkpt>
      <trkpt lat="43.42492" lon="2.45012">
        <ele>1104</ele>
        <time>2017-10-13T09:39:35Z</time>
      </trkpt>
      <trkpt lat="43.4253" lon="2.45033">
        <ele>1107</ele>
        <time>2017-10-13T09:41:35Z</time>
      </trkpt>
      <trkpt lat="43.42547" lon="2.45046">
        <ele>1108</ele>
        <time>2017-10-13T09:43:35Z</time>
      </trkpt>
      <trkpt lat="43.42565" lon="2.45063">
        <ele>1110</ele>
        <time>2017-10-13T09:45:35Z</time>
      </trkpt>
      <trkpt lat="43.4258" lon="2.45081">
        <ele>1112</ele>
        <time>2017-10-13T09:47:35Z</time>
      </trkpt>
      <trkpt lat="43.42616" lon="2.45131">
        <ele>1113</ele>
        <time>2017-10-13T09:49:35Z</time>
      </trkpt>
      <trkpt lat="43.42636" lon="2.45158">
        <ele>1114</ele>
        <time>2017-10-13T09:51:35Z</time>
      </trkpt>
      <trkpt lat="43.42646" lon="2.45171">
        <ele>1115</ele>
        <time>2017-10-13T09:53:35Z</time>
      </trkpt>
      <trkpt lat="43.42652" lon="2.45184">
        <ele>1116</ele>
        <time>2017-10-13T09:55:35Z</time>
      </trkpt>
      <trkpt lat="43.42671" lon="2.45208">
        <ele>1119</ele>
        <time>2017-10-13T09:57:35Z</time>
      </trkpt>
      <trkpt lat="43.4268" lon="2.45219">
        <ele>1120</ele>
        <time>2017-10-13T09:59:35Z</time>
      </trkpt>
      <trkpt lat="43.42686" lon="2.45233">
        <ele>1121</ele>
        <time>2017-10-13T10:01:35Z</time>
      </trkpt>
      <trkpt lat="43.42692" lon="2.45248">
        <ele>1123</ele>
        <time>2017-10-13T10:03:35Z</time>
      </trkpt>
      <trkpt lat="43.42693" lon="2.4526">
        <ele>1124</ele>
        <time>2017-10-13T10:05:35Z</time>
      </trkpt>
      <trkpt lat="43.42697" lon="2.45275">
        <ele>1125</ele>
        <time>2017-10-13T10:07:35Z</time>
      </trkpt>
      <trkpt lat="43.42705" lon="2.45304">
        <ele>1128</ele>
        <time>2017-10-13T10:09:35Z</time>
      </trkpt>
      <trkpt lat="43.42711" lon="2.45326">
        <ele>1130</ele>
        <time>2017-10-13T10:11:35Z</time>
      </trkpt>
      <trkpt lat="43.42717" lon="2.45342">
        <ele>1132</ele>
        <time>2017-10-13T10:13:35Z</time>
      </trkpt>
      <trkpt lat="43.42724" lon="2.45372">
        <ele>1134</ele>
        <time>2017-10-13T10:15:35Z</time>
      </trkpt>
      <trkpt lat="43.42727" lon="2.45386">
        <ele>1135</ele>
        <time>2017-10-13T10:17:35Z</time>
      </trkpt>
      <trkpt lat="43.42729" lon="2.454">
        <ele>1136</ele>
        <time>2017-10-13T10:19:35Z</time>
      </trkpt>
      <trkpt lat="43.42735" lon="2.45416">
        <ele>1137</ele>
        <time>2017-10-13T10:21:35Z</time>
      </trkpt>
      <trkpt lat="43.42736" lon="2.45428">
        <ele>1138</ele>
        <time>2017-10-13T10:23:35Z</time>
      </trkpt>
      <trkpt lat="43.4274" lon="2.45446">
        <ele>1140</ele>
        <time>2017-10-13T10:25:35Z</time>
      </trkpt>
      <trkpt lat="43.42742" lon="2.45464">
        <ele>1142</ele>
        <time>2017-10-13T10:27:35Z</time>
      </trkpt>
      <trkpt lat="43.42744" lon="2.4548">
        <ele>1143</ele>
        <time>2017-10-13T10:29:35Z</time>
      </trkpt>
      <trkpt lat="43.42744" lon="2.45499">
        <ele>1145</ele>
        <time>2017-10-13T10:31:35Z</time>
      </trkpt>
      <trkpt lat="43.42743" lon="2.45519">
        <ele>1146</ele>
        <time>2017-10-13T10:33:35Z</time>
      </trkpt>
      <trkpt lat="43.42745" lon="2.45541">
        <ele>1148</ele>
        <time>2017-10-13T10:35:35Z</time>
      </trkpt>
      <trkpt lat="43.42743" lon="2.4556">
        <ele>1149</ele>
        <time>2017-10-13T10:37:35Z</time>
      </trkpt>
      <trkpt lat="43.4274" lon="2.45581">
        <ele>1150</ele>
        <time>2017-10-13T10:39:35Z</time>
      </trkpt>
      <trkpt lat="43.42739" lon="2.45599">
        <ele>1151</ele>
        <time>2017-10-13T10:41:35Z</time>
      </trkpt>
      <trkpt lat="43.42739" lon="2.45602">
        <ele>1151</ele>
        <time>2017-10-13T10:43:35Z</time>
      </trkpt>
      <trkpt lat="43.4274" lon="2.45623">
        <ele>1152</ele>
        <time>2017-10-13T10:45:35Z</time>
      </trkpt>
      <trkpt lat="43.42748" lon="2.45648">
        <ele>1153</ele>
        <time>2017-10-13T10:47:35Z</time>
      </trkpt>
      <trkpt lat="43.42757" lon="2.45674">
        <ele>1154</ele>
        <time>2017-10-13T10:49:35Z</time>
      </trkpt>
      <trkpt lat="43.4277" lon="2.45698">
        <ele>1155</ele>
        <time>2017-10-13T10:51:35Z</time>
      </trkpt>
      <trkpt lat="43.42768" lon="2.45703">
        <ele>1156</ele>
        <time>2017-10-13T10:53:35Z</time>
      </trkpt>
      <trkpt lat="43.42762" lon="2.45707">
        <ele>1156</ele>
        <time>2017-10-13T10:55:35Z</time>
      </trkpt>
      <trkpt lat="43.42762" lon="2.45708">
        <ele>1156</ele>
        <time>2017-10-13T10:57:35Z</time>
      </trkpt>
      <trkpt lat="43.42762" lon="2.45707">
        <ele>1156</ele>
        <time>2017-10-13T10:59:35Z</time>
      </trkpt>
      <trkpt lat="43.4276" lon="2.45712">
        <ele>1156</ele>
        <time>2017-10-13T11:01:35Z</time>
      </trkpt>
      <trkpt lat="43.42766" lon="2.45708">
        <ele>1156</ele>
        <time>2017-10-13T11:03:35Z</time>
      </trkpt>
      <trkpt lat="43.42775" lon="2.45701">
        <ele>1155</ele>
        <time>2017-10-13T11:05:35Z</time>
      </trkpt>
      <trkpt lat="43.42786" lon="2.457">
        <ele>1155</ele>
        <time>2017-10-13T11:07:35Z</time>
      </trkpt>
      <trkpt lat="43.42791" lon="2.45698">
        <ele>1155</ele>
        <time>2017-10-13T11:09:35Z</time>
      </trkpt>
      <trkpt lat="43.4279" lon="2.45698">
        <ele>1155</ele>
        <time>2017-10-13T11:11:35Z</time>
      </trkpt>
      <trkpt lat="43.42791" lon="2.45698">
        <ele>1155</ele>
        <time>2017-10-13T11:13:35Z</time>
      </trkpt>
      <trkpt lat="43.42791" lon="2.45698">
        <ele>1155</ele>
        <time>2017-10-13T11:15:35Z</time>
      </trkpt>
      <trkpt lat="43.42795" lon="2.45701">
        <ele>1155</ele>
        <time>2017-10-13T11:17:35Z</time>
      </trkpt>
      <trkpt lat="43.42796" lon="2.45716">
        <ele>1156</ele>
        <time>2017-10-13T11:19:35Z</time>
      </trkpt>
      <trkpt lat="43.42788" lon="2.45773">
        <ele>1160</ele>
        <time>2017-10-13T11:21:35Z</time>
      </trkpt>
      <trkpt lat="43.42785" lon="2.45797">
        <ele>1161</ele>
        <time>2017-10-13T11:23:35Z</time>
      </trkpt>
      <trkpt lat="43.42783" lon="2.45818">
        <ele>1163</ele>
        <time>2017-10-13T11:25:35Z</time>
      </trkpt>
      <trkpt lat="43.42782" lon="2.45832">
        <ele>1164</ele>
        <time>2017-10-13T11:27:35Z</time>
      </trkpt>
      <trkpt lat="43.42782" lon="2.45849">
        <ele>1165</ele>
        <time>2017-10-13T11:29:35Z</time>
      </trkpt>
      <trkpt lat="43.42781" lon="2.45865">
        <ele>1166</ele>
        <time>2017-10-13T11:31:35Z</time>
      </trkpt>
      <trkpt lat="43.42778" lon="2.4588">
        <ele>1167</ele>
        <time>2017-10-13T11:33:35Z</time>
      </trkpt>
      <trkpt lat="43.42774" lon="2.45893">
        <ele>1168</ele>
        <time>2017-10-13T11:35:35Z</time>
      </trkpt>
      <trkpt lat="43.42766" lon="2.4591">
        <ele>1170</ele>
        <time>2017-10-13T11:37:35Z</time>
      </trkpt>
      <trkpt lat="43.42757" lon="2.45926">
        <ele>1171</ele>
        <time>2017-10-13T11:39:35Z</time>
      </trkpt>
      <trkpt lat="43.42738" lon="2.45959">
        <ele>1172</ele>
        <time>2017-10-13T11:41:35Z</time>
      </trkpt>
      <trkpt lat="43.42735" lon="2.45963">
        <ele>1172</ele>
        <time>2017-10-13T11:43:35Z</time>
      </trkpt>
      <trkpt lat="43.42734" lon="2.45965">
        <ele>1172</ele>
        <time>2017-10-13T11:45:35Z</time>
      </trkpt>
      <trkpt lat="43.42723" lon="2.45982">
        <ele>1174</ele>
        <time>2017-10-13T11:47:35Z</time>
      </trkpt>
      <trkpt lat="43.42709" lon="2.45994">
        <ele>1175</ele>
        <time>2017-10-13T11:49:35Z</time>
      </trkpt>
      <trkpt lat="43.42699" lon="2.46009">
        <ele>1176</ele>
        <time>2017-10-13T11:51:35Z</time>
      </trkpt>
      <trkpt lat="43.42695" lon="2.46013">
        <ele>1177</ele>
        <time>2017-10-13T11:53:35Z</time>
      </trkpt>
      <trkpt lat="43.42686" lon="2.46017">
        <ele>1178</ele>
        <time>2017-10-13T11:55:35Z</time>
      </trkpt>
      <trkpt lat="43.4267" lon="2.46021">
        <ele>1179</ele>
        <time>2017-10-13T11:57:35Z</time>
      </trkpt>
      <trkpt lat="43.42665" lon="2.46021">
        <ele>1180</ele>
        <time>2017-10-13T11:59:35Z</time>
      </trkpt>
      <trkpt lat="43.42658" lon="2.46031">
        <ele>1181</ele>
        <time>2017-10-13T12:01:35Z</time>
      </trkpt>
      <trkpt lat="43.42653" lon="2.46038">
        <ele>1182</ele>
        <time>2017-10-13T12:03:35Z</time>
      </trkpt>
      <trkpt lat="43.4265" lon="2.46049">
        <ele>1183</ele>
        <time>2017-10-13T12:05:35Z</time>
      </trkpt>
      <trkpt lat="43.42645" lon="2.46059">
        <ele>1184</ele>
        <time>2017-10-13T12:07:35Z</time>
      </trkpt>
      <trkpt lat="43.42632" lon="2.46066">
        <ele>1185</ele>
        <time>2017-10-13T12:09:35Z</time>
      </trkpt>
      <trkpt lat="43.42616" lon="2.46071">
        <ele>1187</ele>
        <time>2017-10-13T12:11:35Z</time>
      </trkpt>
      <trkpt lat="43.42598" lon="2.46075">
        <ele>1188</ele>
        <time>2017-10-13T12:13:35Z</time>
      </trkpt>
      <trkpt lat="43.42585" lon="2.46081">
        <ele>1190</ele>
        <time>2017-10-13T12:15:35Z</time>
      </trkpt>
      <trkpt lat="43.42567" lon="2.4609">
        <ele>1191</ele>
        <time>2017-10-13T12:17:35Z</time>
      </trkpt>
      <trkpt lat="43.42536" lon="2.46104">
        <ele>1192</ele>
        <time>2017-10-13T12:19:35Z</time>
      </trkpt>
      <trkpt lat="43.42524" lon="2.46113">
        <ele>1194</ele>
        <time>2017-10-13T12:21:35Z</time>
      </trkpt>
      <trkpt lat="43.42518" lon="2.46119">
        <ele>1194</ele>
        <time>2017-10-13T12:23:35Z</time>
      </trkpt>
      <trkpt lat="43.42507" lon="2.46129">
        <ele>1196</ele>
        <time>2017-10-13T12:25:35Z</time>
      </trkpt>
      <trkpt lat="43.42499" lon="2.46139">
        <ele>1197</ele>
        <time>2017-10-13T12:27:35Z</time>
      </trkpt>
      <trkpt lat="43.42493" lon="2.46143">
        <ele>1198</ele>
        <time>2017-10-13T12:29:35Z</time>
      </trkpt>
      <trkpt lat="43.42484" lon="2.46151">
        <ele>1199</ele>
        <time>2017-10-13T12:31:35Z</time>
      </trkpt>
      <trkpt lat="43.42475" lon="2.46159">
        <ele>1199</ele>
        <time>2017-10-13T12:33:35Z</time>
      </trkpt>
      <trkpt lat="43.42466" lon="2.46169">
        <ele>1200</ele>
        <time>2017-10-13T12:35:35Z</time>
      </trkpt>
      <trkpt lat="43.42461" lon="2.46181">
        <ele>1202</ele>
        <time>2017-10-13T12:37:35Z</time>
      </trkpt>
      <trkpt lat="43.42443" lon="2.46202">
        <ele>1204</ele>
        <time>2017-10-13T12:39:35Z</time>
      </trkpt>
      <trkpt lat="43.42433" lon="2.46215">
        <ele>1205</ele>
        <time>2017-10-13T12:41:35Z</time>
      </trkpt>
      <trkpt lat="43.42425" lon="2.46224">
        <ele>1206</ele>
        <time>2017-10-13T12:43:35Z</time>
      </trkpt>
      <trkpt lat="43.42419" lon="2.4623">
        <ele>1207</ele>
        <time>2017-10-13T12:45:35Z</time>
      </trkpt>
      <trkpt lat="43.42421" lon="2.46229">
        <ele>1207</ele>
        <time>2017-10-13T12:47:35Z</time>
      </trkpt>
      <trkpt lat="43.42419" lon="2.46232">
        <ele>1207</ele>
        <time>2017-10-13T12:49:35Z</time>
      </trkpt>
      <trkpt lat="43.42417" lon="2.4623">
        <ele>1207</ele>
        <time>2017-10-13T12:51:35Z</time>
      </trkpt>
      <trkpt lat="43.42417" lon="2.46231">
        <ele>1207</ele>
        <time>2017-10-13T12:53:35Z</time>
      </trkpt>
      <trkpt lat="43.42418" lon="2.46236">
        <ele>1207</ele>
        <time>2017-10-13T12:55:35Z</time>
      </trkpt>
      <trkpt lat="43.42416" lon="2.46251">
        <ele>1209</ele>
        <time>2017-10-13T12:57:35Z</time>
      </trkpt>
      <trkpt lat="43.42406" lon="2.46272">
        <ele>1207</ele>
        <time>2017-10-13T12:59:35Z</time>
      </trkpt>
      <trkpt lat="43.42397" lon="2.46283">
        <ele>1206</ele>
        <time>2017-10-13T13:01:35Z</time>
      </trkpt>
      <trkpt lat="43.42397" lon="2.46285">
        <ele>1206</ele>
        <time>2017-10-13T13:03:35Z</time>
      </trkpt>
      <trkpt lat="43.42397" lon="2.46288">
        <ele>1206</ele>
        <time>2017-10-13T13:05:35Z</time>
      </trkpt>
      <trkpt lat="43.42413" lon="2.46308">
        <ele>1210</ele>
        <time>2017-10-13T13:07:35Z</time>
      </trkpt>
      <trkpt lat="43.42423" lon="2.46332">
        <ele>1212</ele>
        <time>2017-10-13T13:09:35Z</time>
      </trkpt>
      <trkpt lat="43.42436" lon="2.46362">
        <ele>1209</ele>
        <time>2017-10-13T13:11:35Z</time>
      </trkpt>
      <trkpt lat="43.42447" lon="2.46396">
        <ele>1206</ele>
        <time>2017-10-13T13:13:35Z</time>
      </trkpt>
      <trkpt lat="43.42466" lon="2.46419">
        <ele>1204</ele>
        <time>2017-10-13T13:15:35Z</time>
      </trkpt>
      <trkpt lat="43.42487" lon="2.46421">
        <ele>1203</ele>
        <time>2017-10-13T13:17:35Z</time>
      </trkpt>
      <trkpt lat="43.4251" lon="2.4641">
        <ele>1202</ele>
        <time>2017-10-13T13:19:35Z</time>
      </trkpt>
      <trkpt lat="43.42531" lon="2.4639">
        <ele>1200</ele>
        <time>2017-10-13T13:21:35Z</time>
      </trkpt>
      <trkpt lat="43.42543" lon="2.46376">
        <ele>1199</ele>
        <time>2017-10-13T13:23:35Z</time>
      </trkpt>
      <trkpt lat="43.42547" lon="2.4638">
        <ele>1199</ele>
        <time>2017-10-13T13:25:35Z</time>
      </trkpt>
      <trkpt lat="43.42558" lon="2.46398">
        <ele>1197</ele>
        <time>2017-10-13T13:27:35Z</time>
      </trkpt>
      <trkpt lat="43.42573" lon="2.46413">
        <ele>1194</ele>
        <time>2017-10-13T13:29:35Z</time>
      </trkpt>
      <trkpt lat="43.42592" lon="2.46426">
        <ele>1192</ele>
        <time>2017-10-13T13:31:35Z</time>
      </trkpt>
      <trkpt lat="43.42607" lon="2.46435">
        <ele>1190</ele>
        <time>2017-10-13T13:33:35Z</time>
      </trkpt>
      <trkpt lat="43.42621" lon="2.46443">
        <ele>1188</ele>
        <time>2017-10-13T13:35:35Z</time>
      </trkpt>
      <trkpt lat="43.42657" lon="2.46462">
        <ele>1184</ele>
        <time>2017-10-13T13:37:35Z</time>
      </trkpt>
      <trkpt lat="43.42687" lon="2.46481">
        <ele>1181</ele>
        <time>2017-10-13T13:39:35Z</time>
      </trkpt>
      <trkpt lat="43.42691" lon="2.46482">
        <ele>1180</ele>
        <time>2017-10-13T13:41:35Z</time>
      </trkpt>
      <trkpt lat="43.4271" lon="2.46495">
        <ele>1179</ele>
        <time>2017-10-13T13:43:35Z</time>
      </trkpt>
      <trkpt lat="43.42729" lon="2.46506">
        <ele>1177</ele>
        <time>2017-10-13T13:45:35Z</time>
      </trkpt>
      <trkpt lat="43.42747" lon="2.46518">
        <ele>1176</ele>
        <time>2017-10-13T13:47:35Z</time>
      </trkpt>
      <trkpt lat="43.42759" lon="2.46526">
        <ele>1174</ele>
        <time>2017-10-13T13:49:35Z</time>
      </trkpt>
      <trkpt lat="43.42769" lon="2.46531">
        <ele>1173</ele>
        <time>2017-10-13T13:51:35Z</time>
      </trkpt>
      <trkpt lat="43.42785" lon="2.46541">
        <ele>1171</ele>
        <time>2017-10-13T13:53:35Z</time>
      </trkpt>
      <trkpt lat="43.4281" lon="2.46566">
        <ele>1168</ele>
        <time>2017-10-13T13:55:35Z</time>
      </trkpt>
      <trkpt lat="43.42827" lon="2.46577">
        <ele>1165</ele>
        <time>2017-10-13T13:57:35Z</time>
      </trkpt>
      <trkpt lat="43.42844" lon="2.46589">
        <ele>1162</ele>
        <time>2017-10-13T13:59:35Z</time>
      </trkpt>
      <trkpt lat="43.4286" lon="2.46602">
        <ele>1160</ele>
        <time>2017-10-13T14:01:35Z</time>
      </trkpt>
      <trkpt lat="43.42863" lon="2.46602">
        <ele>1159</ele>
        <time>2017-10-13T14:03:35Z</time>
      </trkpt>
      <trkpt lat="43.4288" lon="2.46611">
        <ele>1157</ele>
        <time>2017-10-13T14:05:35Z</time>
      </trkpt>
      <trkpt lat="43.42902" lon="2.46626">
        <ele>1154</ele>
        <time>2017-10-13T14:07:35Z</time>
      </trkpt>
      <trkpt lat="43.42912" lon="2.4664">
        <ele>1152</ele>
        <time>2017-10-13T14:09:35Z</time>
      </trkpt>
      <trkpt lat="43.42925" lon="2.46652">
        <ele>1151</ele>
        <time>2017-10-13T14:11:35Z</time>
      </trkpt>
      <trkpt lat="43.4294" lon="2.4667">
        <ele>1150</ele>
        <time>2017-10-13T14:13:35Z</time>
      </trkpt>
      <trkpt lat="43.42943" lon="2.46671">
        <ele>1150</ele>
        <time>2017-10-13T14:15:35Z</time>
      </trkpt>
      <trkpt lat="43.42947" lon="2.46676">
        <ele>1149</ele>
        <time>2017-10-13T14:17:35Z</time>
      </trkpt>
      <trkpt lat="43.42947" lon="2.46674">
        <ele>1149</ele>
        <time>2017-10-13T14:19:35Z</time>
      </trkpt>
      <trkpt lat="43.42946" lon="2.46674">
        <ele>1149</ele>
        <time>2017-10-13T14:21:35Z</time>
      </trkpt>
      <trkpt lat="43.42947" lon="2.46674">
        <ele>1149</ele>
        <time>2017-10-13T14:23:35Z</time>
      </trkpt>
      <trkpt lat="43.42945" lon="2.46675">
        <ele>1150</ele>
        <time>2017-10-13T14:25:35Z</time>
      </trkpt>
      <trkpt lat="43.42948" lon="2.46682">
        <ele>1150</ele>
        <time>2017-10-13T14:27:35Z</time>
      </trkpt>
      <trkpt lat="43.42948" lon="2.46683">
        <ele>1150</ele>
        <time>2017-10-13T14:29:35Z</time>
      </trkpt>
      <trkpt lat="43.42945" lon="2.46685">
        <ele>1150</ele>
        <time>2017-10-13T14:31:35Z</time>
      </trkpt>
      <trkpt lat="43.42947" lon="2.46685">
        <ele>1150</ele>
        <time>2017-10-13T14:33:35Z</time>
      </trkpt>
      <trkpt lat="43.42948" lon="2.46685">
        <ele>1150</ele>
        <time>2017-10-13T14:35:35Z</time>
      </trkpt>
      <trkpt lat="43.42945" lon="2.46683">
        <ele>1150</ele>
        <time>2017-10-13T14:37:35Z</time>
      </trkpt>
      <trkpt lat="43.42946" lon="2.46683">
        <ele>1150</ele>
        <time>2017-10-13T14:39:35Z</time>
      </trkpt>
      <trkpt lat="43.42947" lon="2.46684">
        <ele>1150</ele>
        <time>2017-10-13T14:41:35Z</time>
      </trkpt>
      <trkpt lat="43.42946" lon="2.46684">
        <ele>1150</ele>
        <time>2017-10-13T14:43:35Z</time>
      </trkpt>
      <trkpt lat="43.42945" lon="2.46685">
        <ele>1150</ele>
        <time>2017-10-13T14:45:35Z</time>
      </trkpt>
      <trkpt lat="43.42947" lon="2.46684">
        <ele>1150</ele>
        <time>2017-10-13T14:47:35Z</time>
      </trkpt>
      <trkpt lat="43.42947" lon="2.46685">
        <ele>1150</ele>
        <time>2017-10-13T14:49:35Z</time>
      </trkpt>
      <trkpt lat="43.42948" lon="2.46684">
        <ele>1150</ele>
        <time>2017-10-13T14:51:35Z</time>
      </trkpt>
      <trkpt lat="43.42945" lon="2.46685">
        <ele>1150</ele>
        <time>2017-10-13T14:53:35Z</time>
      </trkpt>
      <trkpt lat="43.42946" lon="2.46687">
        <ele>1150</ele>
        <time>2017-10-13T14:55:35Z</time>
      </trkpt>
      <trkpt lat="43.42945" lon="2.46687">
        <ele>1150</ele>
        <time>2017-10-13T14:57:35Z</time>
      </trkpt>
      <trkpt lat="43.42946" lon="2.46686">
        <ele>1150</ele>
        <time>2017-10-13T14:59:35Z</time>
      </trkpt>
      <trkpt lat="43.42947" lon="2.46686">
        <ele>1150</ele>
        <time>2017-10-13T15:01:35Z</time>
      </trkpt>
      <trkpt lat="43.42947" lon="2.46685">
        <ele>1150</ele>
        <time>2017-10-13T15:03:35Z</time>
      </trkpt>
      <trkpt lat="43.42946" lon="2.46686">
        <ele>1150</ele>
        <time>2017-10-13T15:05:35Z</time>
      </trkpt>
      <trkpt lat="43.42944" lon="2.46684">
        <ele>1150</ele>
        <time>2017-10-13T15:07:35Z</time>
      </trkpt>
      <trkpt lat="43.42943" lon="2.46689">
        <ele>1150</ele>
        <time>2017-10-13T15:09:35Z</time>
      </trkpt>
      <trkpt lat="43.42942" lon="2.46687">
        <ele>1150</ele>
        <time>2017-10-13T15:11:35Z</time>
      </trkpt>
      <trkpt lat="43.42944" lon="2.46687">
        <ele>1150</ele>
        <time>2017-10-13T15:13:35Z</time>
      </trkpt>
      <trkpt lat="43.42942" lon="2.46684">
        <ele>1150</ele>
        <time>2017-10-13T15:15:35Z</time>
      </trkpt>
      <trkpt lat="43.42944" lon="2.46683">
        <ele>1150</ele>
        <time>2017-10-13T15:17:35Z</time>
      </trkpt>
      <trkpt lat="43.42943" lon="2.46683">
        <ele>1150</ele>
        <time>2017-10-13T15:19:35Z</time>
      </trkpt>
      <trkpt lat="43.42944" lon="2.46682">
        <ele>1150</ele>
        <time>2017-10-13T15:21:35Z</time>
      </trkpt>
      <trkpt lat="43.42939" lon="2.46681">
        <ele>1150</ele>
        <time>2017-10-13T15:23:35Z</time>
      </trkpt>
      <trkpt lat="43.42941" lon="2.46681">
        <ele>1150</ele>
        <time>2017-10-13T15:25:35Z</time>
      </trkpt>
      <trkpt lat="43.4294" lon="2.46678">
        <ele>1150</ele>
        <time>2017-10-13T15:27:35Z</time>
      </trkpt>
      <trkpt lat="43.42942" lon="2.46679">
        <ele>1150</ele>
        <time>2017-10-13T15:29:35Z</time>
      </trkpt>
      <trkpt lat="43.42941" lon="2.46678">
        <ele>1150</ele>
        <time>2017-10-13T15:31:35Z</time>
      </trkpt>
      <trkpt lat="43.42941" lon="2.46682">
        <ele>1150</ele>
        <time>2017-10-13T15:33:35Z</time>
      </trkpt>
      <trkpt lat="43.42944" lon="2.46681">
        <ele>1150</ele>
        <time>2017-10-13T15:35:35Z</time>
      </trkpt>
      <trkpt lat="43.42946" lon="2.46679">
        <ele>1150</ele>
        <time>2017-10-13T15:37:35Z</time>
      </trkpt>
      <trkpt lat="43.42945" lon="2.4668">
        <ele>1150</ele>
        <time>2017-10-13T15:39:35Z</time>
      </trkpt>
      <trkpt lat="43.42944" lon="2.46677">
        <ele>1150</ele>
        <time>2017-10-13T15:41:35Z</time>
      </trkpt>
      <trkpt lat="43.42945" lon="2.4668">
        <ele>1150</ele>
        <time>2017-10-13T15:43:35Z</time>
      </trkpt>
      <trkpt lat="43.42948" lon="2.46679">
        <ele>1149</ele>
        <time>2017-10-13T15:45:35Z</time>
      </trkpt>
      <trkpt lat="43.42945" lon="2.46682">
        <ele>1150</ele>
        <time>2017-10-13T15:47:35Z</time>
      </trkpt>
      <trkpt lat="43.42946" lon="2.46679">
        <ele>1150</ele>
        <time>2017-10-13T15:49:35Z</time>
      </trkpt>
      <trkpt lat="43.42948" lon="2.46679">
        <ele>1149</ele>
        <time>2017-10-13T15:51:35Z</time>
      </trkpt>
      <trkpt lat="43.42947" lon="2.46681">
        <ele>1150</ele>
        <time>2017-10-13T15:53:35Z</time>
      </trkpt>
      <trkpt lat="43.42948" lon="2.4668">
        <ele>1149</ele>
        <time>2017-10-13T15:55:35Z</time>
      </trkpt>
      <trkpt lat="43.42948" lon="2.46679">
        <ele>1149</ele>
        <time>2017-10-13T15:57:35Z</time>
      </trkpt>
      <trkpt lat="43.42946" lon="2.46682">
        <ele>1150</ele>
        <time>2017-10-13T15:59:35Z</time>
      </trkpt>
      <trkpt lat="43.42945" lon="2.46682">
        <ele>1150</ele>
        <time>2017-10-13T16:01:35Z</time>
      </trkpt>
      <trkpt lat="43.42945" lon="2.46678">
        <ele>1150</ele>
        <time>2017-10-13T16:03:35Z</time>
      </trkpt>
      <trkpt lat="43.42949" lon="2.46675">
        <ele>1149</ele>
        <time>2017-10-13T16:05:35Z</time>
      </trkpt>
      <trkpt lat="43.42949" lon="2.46678">
        <ele>1149</ele>
        <time>2017-10-13T16:07:35Z</time>
      </trkpt>
      <trkpt lat="43.42948" lon="2.4668">
        <ele>1149</ele>
        <time>2017-10-13T16:09:35Z</time>
      </trkpt>
      <trkpt lat="43.42946" lon="2.46679">
        <ele>1150</ele>
        <time>2017-10-13T16:11:35Z</time>
      </trkpt>
      <trkpt lat="43.42945" lon="2.46683">
        <ele>1150</ele>
        <time>2017-10-13T16:13:35Z</time>
      </trkpt>
      <trkpt lat="43.42944" lon="2.46683">
        <ele>1150</ele>
        <time>2017-10-13T16:15:35Z</time>
      </trkpt>
      <trkpt lat="43.42944" lon="2.46685">
        <ele>1150</ele>
        <time>2017-10-13T16:17:35Z</time>
      </trkpt>
      <trkpt lat="43.42944" lon="2.46684">
        <ele>1150</ele>
        <time>2017-10-13T16:19:35Z</time>
      </trkpt>
      <trkpt lat="43.42945" lon="2.46683">
        <ele>1150</ele>
        <time>2017-10-13T16:21:35Z</time>
      </trkpt>
      <trkpt lat="43.42945" lon="2.46683">
        <ele>1150</ele>
        <time>2017-10-13T16:23:35Z</time>
      </trkpt>
      <trkpt lat="43.42945" lon="2.46685">
        <ele>1150</ele>
        <time>2017-10-13T16:25:35Z</time>
      </trkpt>
      <trkpt lat="43.42945" lon="2.46685">
        <ele>1150</ele>
        <time>2017-10-13T16:27:35Z</time>
      </trkpt>
      <trkpt lat="43.42943" lon="2.46686">
        <ele>1150</ele>
        <time>2017-10-13T16:29:35Z</time>
      </trkpt>
      <trkpt lat="43.42943" lon="2.46684">
        <ele>1150</ele>
        <time>2017-10-13T16:31:35Z</time>
      </trkpt>
      <trkpt lat="43.42944" lon="2.46684">
        <ele>1150</ele>
        <time>2017-10-13T16:33:35Z</time>
      </trkpt>
      <trkpt lat="43.42944" lon="2.46686">
        <ele>1150</ele>
        <time>2017-10-13T16:35:35Z</time>
      </trkpt>
      <trkpt lat="43.42943" lon="2.46687">
        <ele>1150</ele>
        <time>2017-10-13T16:37:35Z</time>
      </trkpt>
      <trkpt lat="43.42944" lon="2.46684">
        <ele>1150</ele>
        <time>2017-10-13T16:39:35Z</time>
      </trkpt>
      <trkpt lat="43.42945" lon="2.46683">
        <ele>1150</ele>
        <time>2017-10-13T16:41:35Z</time>
      </trkpt>
      <trkpt lat="43.42947" lon="2.46683">
        <ele>1150</ele>
        <time>2017-10-13T16:43:35Z</time>
      </trkpt>
      <trkpt lat="43.42948" lon="2.46682">
        <ele>1150</ele>
        <time>2017-10-13T16:45:35Z</time>
      </trkpt>
      <trkpt lat="43.42948" lon="2.4668">
        <ele>1149</ele>
        <time>2017-10-13T16:47:35Z</time>
      </trkpt>
      <trkpt lat="43.42948" lon="2.46683">
        <ele>1150</ele>
        <time>2017-10-13T16:49:35Z</time>
      </trkpt>
      <trkpt lat="43.42949" lon="2.46682">
        <ele>1149</ele>
        <time>2017-10-13T16:51:35Z</time>
      </trkpt>
      <trkpt lat="43.42948" lon="2.46682">
        <ele>1150</ele>
        <time>2017-10-13T16:53:35Z</time>
      </trkpt>
      <trkpt lat="43.42946" lon="2.46682">
        <ele>1150</ele>
        <time>2017-10-13T16:55:35Z</time>
      </trkpt>
      <trkpt lat="43.42947" lon="2.46682">
        <ele>1150</ele>
        <time>2017-10-13T16:57:35Z</time>
      </trkpt>
      <trkpt lat="43.42945" lon="2.46682">
        <ele>1150</ele>
        <time>2017-10-13T16:59:35Z</time>
      </trkpt>
      <trkpt lat="43.42946" lon="2.46679">
        <ele>1150</ele>
        <time>2017-10-13T17:01:35Z</time>
      </trkpt>
      <trkpt lat="43.42946" lon="2.4668">
        <ele>1150</ele>
        <time>2017-10-13T17:03:35Z</time>
      </trkpt>
      <trkpt lat="43.42945" lon="2.46675">
        <ele>1150</ele>
        <time>2017-10-13T17:05:35Z</time>
      </trkpt>
      <trkpt lat="43.42941" lon="2.46673">
        <ele>1150</ele>
        <time>2017-10-13T17:07:35Z</time>
      </trkpt>
      <trkpt lat="43.42941" lon="2.46675">
        <ele>1150</ele>
        <time>2017-10-13T17:09:35Z</time>
      </trkpt>
      <trkpt lat="43.42938" lon="2.46672">
        <ele>1150</ele>
        <time>2017-10-13T17:11:35Z</time>
      </trkpt>
      <trkpt lat="43.42939" lon="2.4667">
        <ele>1150</ele>
        <time>2017-10-13T17:13:35Z</time>
      </trkpt>
      <trkpt lat="43.42939" lon="2.46672">
        <ele>1150</ele>
        <time>2017-10-13T17:15:35Z</time>
      </trkpt>
      <trkpt lat="43.4294" lon="2.46669">
        <ele>1150</ele>
        <time>2017-10-13T17:17:35Z</time>
      </trkpt>
      <trkpt lat="43.42939" lon="2.4667">
        <ele>1150</ele>
        <time>2017-10-13T17:19:35Z</time>
      </trkpt>
      <trkpt lat="43.42941" lon="2.46667">
        <ele>1150</ele>
        <time>2017-10-13T17:21:35Z</time>
      </trkpt>
      <trkpt lat="43.42941" lon="2.4667">
        <ele>1150</ele>
        <time>2017-10-13T17:23:35Z</time>
      </trkpt>
      <trkpt lat="43.4294" lon="2.46669">
        <ele>1150</ele>
        <time>2017-10-13T17:25:35Z</time>
      </trkpt>
      <trkpt lat="43.4294" lon="2.46671">
        <ele>1150</ele>
        <time>2017-10-13T17:27:35Z</time>
      </trkpt>
      <trkpt lat="43.42939" lon="2.46672">
        <ele>1150</ele>
        <time>2017-10-13T17:29:35Z</time>
      </trkpt>
      <trkpt lat="43.42938" lon="2.46668">
        <ele>1150</ele>
        <time>2017-10-13T17:31:35Z</time>
      </trkpt>
      <trkpt lat="43.42931" lon="2.46662">
        <ele>1151</ele>
        <time>2017-10-13T17:33:35Z</time>
      </trkpt>
      <trkpt lat="43.42914" lon="2.46642">
        <ele>1152</ele>
        <time>2017-10-13T17:35:35Z</time>
      </trkpt>
      <trkpt lat="43.42909" lon="2.46636">
        <ele>1153</ele>
        <time>2017-10-13T17:37:35Z</time>
      </trkpt>
      <trkpt lat="43.42901" lon="2.46629">
        <ele>1154</ele>
        <time>2017-10-13T17:39:35Z</time>
      </trkpt>
      <trkpt lat="43.42893" lon="2.46622">
        <ele>1155</ele>
        <time>2017-10-13T17:41:35Z</time>
      </trkpt>
      <trkpt lat="43.42884" lon="2.46616">
        <ele>1156</ele>
        <time>2017-10-13T17:43:35Z</time>
      </trkpt>
      <trkpt lat="43.42875" lon="2.46611">
        <ele>1158</ele>
        <time>2017-10-13T17:45:35Z</time>
      </trkpt>
      <trkpt lat="43.42867" lon="2.46605">
        <ele>1159</ele>
        <time>2017-10-13T17:47:35Z</time>
      </trkpt>
      <trkpt lat="43.42857" lon="2.46601">
        <ele>1160</ele>
        <time>2017-10-13T17:49:35Z</time>
      </trkpt>
      <trkpt lat="43.42848" lon="2.46595">
        <ele>1162</ele>
        <time>2017-10-13T17:51:35Z</time>
      </trkpt>
      <trkpt lat="43.42843" lon="2.46591">
        <ele>1163</ele>
        <time>2017-10-13T17:53:35Z</time>
      </trkpt>
      <trkpt lat="43.42834" lon="2.46586">
        <ele>1164</ele>
        <time>2017-10-13T17:55:35Z</time>
      </trkpt>
      <trkpt lat="43.42823" lon="2.46576">
        <ele>1166</ele>
        <time>2017-10-13T17:57:35Z</time>
      </trkpt>
      <trkpt lat="43.42814" lon="2.4657">
        <ele>1167</ele>
        <time>2017-10-13T17:59:35Z</time>
      </trkpt>
      <trkpt lat="43.42801" lon="2.46558">
        <ele>1169</ele>
        <time>2017-10-13T18:01:35Z</time>
      </trkpt>
      <trkpt lat="43.42799" lon="2.46555">
        <ele>1169</ele>
        <time>2017-10-13T18:03:35Z</time>
      </trkpt>
      <trkpt lat="43.42785" lon="2.46545">
        <ele>1171</ele>
        <time>2017-10-13T18:05:35Z</time>
      </trkpt>
      <trkpt lat="43.4277" lon="2.46536">
        <ele>1173</ele>
        <time>2017-10-13T18:07:35Z</time>
      </trkpt>
      <trkpt lat="43.42756" lon="2.46527">
        <ele>1175</ele>
        <time>2017-10-13T18:09:35Z</time>
      </trkpt>
      <trkpt lat="43.42721" lon="2.46507">
        <ele>1178</ele>
        <time>2017-10-13T18:11:35Z</time>
      </trkpt>
      <trkpt lat="43.42703" lon="2.46493">
        <ele>1179</ele>
        <time>2017-10-13T18:13:35Z</time>
      </trkpt>
      <trkpt lat="43.42688" lon="2.4648">
        <ele>1180</ele>
        <time>2017-10-13T18:15:35Z</time>
      </trkpt>
      <trkpt lat="43.42651" lon="2.46459">
        <ele>1184</ele>
        <time>2017-10-13T18:17:35Z</time>
      </trkpt>
      <trkpt lat="43.42633" lon="2.46449">
        <ele>1187</ele>
        <time>2017-10-13T18:19:35Z</time>
      </trkpt>
      <trkpt lat="43.42617" lon="2.4644">
        <ele>1189</ele>
        <time>2017-10-13T18:21:35Z</time>
      </trkpt>
      <trkpt lat="43.42601" lon="2.4643">
        <ele>1191</ele>
        <time>2017-10-13T18:23:35Z</time>
      </trkpt>
      <trkpt lat="43.42598" lon="2.46429">
        <ele>1191</ele>
        <time>2017-10-13T18:25:35Z</time>
      </trkpt>
      <trkpt lat="43.42585" lon="2.46418">
        <ele>1193</ele>
        <time>2017-10-13T18:27:35Z</time>
      </trkpt>
      <trkpt lat="43.42573" lon="2.46411">
        <ele>1194</ele>
        <time>2017-10-13T18:29:35Z</time>
      </trkpt>
      <trkpt lat="43.42569" lon="2.46407">
        <ele>1195</ele>
        <time>2017-10-13T18:31:35Z</time>
      </trkpt>
      <trkpt lat="43.42557" lon="2.46393">
        <ele>1197</ele>
        <time>2017-10-13T18:33:35Z</time>
      </trkpt>
      <trkpt lat="43.42548" lon="2.46382">
        <ele>1198</ele>
        <time>2017-10-13T18:35:35Z</time>
      </trkpt>
      <trkpt lat="43.42543" lon="2.46379">
        <ele>1199</ele>
        <time>2017-10-13T18:37:35Z</time>
      </trkpt>
      <trkpt lat="43.42537" lon="2.46382">
        <ele>1200</ele>
        <time>2017-10-13T18:39:35Z</time>
      </trkpt>
      <trkpt lat="43.42533" lon="2.46387">
        <ele>1200</ele>
        <time>2017-10-13T18:41:35Z</time>
      </trkpt>
      <trkpt lat="43.42518" lon="2.46406">
        <ele>1201</ele>
        <time>2017-10-13T18:43:35Z</time>
      </trkpt>
      <trkpt lat="43.42508" lon="2.46416">
        <ele>1202</ele>
        <time>2017-10-13T18:45:35Z</time>
      </trkpt>
      <trkpt lat="43.42491" lon="2.46426">
        <ele>1203</ele>
        <time>2017-10-13T18:47:35Z</time>
      </trkpt>
      <trkpt lat="43.42468" lon="2.46429">
        <ele>1203</ele>
        <time>2017-10-13T18:49:35Z</time>
      </trkpt>
      <trkpt lat="43.42449" lon="2.46412">
        <ele>1205</ele>
        <time>2017-10-13T18:51:35Z</time>
      </trkpt>
      <trkpt lat="43.4244" lon="2.464">
        <ele>1206</ele>
        <time>2017-10-13T18:53:35Z</time>
      </trkpt>
      <trkpt lat="43.42433" lon="2.46371">
        <ele>1208</ele>
        <time>2017-10-13T18:55:35Z</time>
      </trkpt>
      <trkpt lat="43.42426" lon="2.46356">
        <ele>1210</ele>
        <time>2017-10-13T18:57:35Z</time>
      </trkpt>
      <trkpt lat="43.42428" lon="2.46358">
        <ele>1209</ele>
        <time>2017-10-13T18:59:35Z</time>
      </trkpt>
      <trkpt lat="43.42423" lon="2.46358">
        <ele>1210</ele>
        <time>2017-10-13T19:01:35Z</time>
      </trkpt>
      <trkpt lat="43.42418" lon="2.4636">
        <ele>1210</ele>
        <time>2017-10-13T19:03:35Z</time>
      </trkpt>
      <trkpt lat="43.42413" lon="2.4636">
        <ele>1209</ele>
        <time>2017-10-13T19:05:35Z</time>
      </trkpt>
      <trkpt lat="43.42399" lon="2.4636">
        <ele>1206</ele>
        <time>2017-10-13T19:07:35Z</time>
      </trkpt>
      <trkpt lat="43.42395" lon="2.4636">
        <ele>1205</ele>
        <time>2017-10-13T19:09:35Z</time>
      </trkpt>
      <trkpt lat="43.4239" lon="2.46361">
        <ele>1204</ele>
        <time>2017-10-13T19:11:35Z</time>
      </trkpt>
      <trkpt lat="43.42375" lon="2.46365">
        <ele>1201</ele>
        <time>2017-10-13T19:13:35Z</time>
      </trkpt>
      <trkpt lat="43.42361" lon="2.46365">
        <ele>1198</ele>
        <time>2017-10-13T19:15:35Z</time>
      </trkpt>
      <trkpt lat="43.42349" lon="2.4637">
        <ele>1195</ele>
        <time>2017-10-13T19:17:35Z</time>
      </trkpt>
      <trkpt lat="43.42339" lon="2.46377">
        <ele>1193</ele>
        <time>2017-10-13T19:19:35Z</time>
      </trkpt>
      <trkpt lat="43.42331" lon="2.46382">
        <ele>1191</ele>
        <time>2017-10-13T19:21:35Z</time>
      </trkpt>
      <trkpt lat="43.4231" lon="2.46401">
        <ele>1186</ele>
        <time>2017-10-13T19:23:35Z</time>
      </trkpt>
      <trkpt lat="43.42299" lon="2.4641">
        <ele>1183</ele>
        <time>2017-10-13T19:25:35Z</time>
      </trkpt>
      <trkpt lat="43.42294" lon="2.46414">
        <ele>1182</ele>
        <time>2017-10-13T19:27:35Z</time>
      </trkpt>
      <trkpt lat="43.42283" lon="2.46419">
        <ele>1180</ele>
        <time>2017-10-13T19:29:35Z</time>
      </trkpt>
      <trkpt lat="43.42259" lon="2.46433">
        <ele>1174</ele>
        <time>2017-10-13T19:31:35Z</time>
      </trkpt>
      <trkpt lat="43.42248" lon="2.46439">
        <ele>1172</ele>
        <time>2017-10-13T19:33:35Z</time>
      </trkpt>
      <trkpt lat="43.42238" lon="2.46441">
        <ele>1169</ele>
        <time>2017-10-13T19:35:35Z</time>
      </trkpt>
      <trkpt lat="43.4223" lon="2.46445">
        <ele>1168</ele>
        <time>2017-10-13T19:37:35Z</time>
      </trkpt>
      <trkpt lat="43.42219" lon="2.46443">
        <ele>1165</ele>
        <time>2017-10-13T19:39:35Z</time>
      </trkpt>
      <trkpt lat="43.42207" lon="2.46442">
        <ele>1163</ele>
        <time>2017-10-13T19:41:35Z</time>
      </trkpt>
      <trkpt lat="43.4219" lon="2.46438">
        <ele>1160</ele>
        <time>2017-10-13T19:43:35Z</time>
      </trkpt>
      <trkpt lat="43.42156" lon="2.46422">
        <ele>1153</ele>
        <time>2017-10-13T19:45:35Z</time>
      </trkpt>
      <trkpt lat="43.42145" lon="2.46416">
        <ele>1151</ele>
        <time>2017-10-13T19:47:35Z</time>
      </trkpt>
      <trkpt lat="43.42137" lon="2.46414">
        <ele>1150</ele>
        <time>2017-10-13T19:49:35Z</time>
      </trkpt>
      <trkpt lat="43.42121" lon="2.46406">
        <ele>1147</ele>
        <time>2017-10-13T19:51:35Z</time>
      </trkpt>
      <trkpt lat="43.42106" lon="2.46399">
        <ele>1144</ele>
        <time>2017-10-13T19:53:35Z</time>
      </trkpt>
      <trkpt lat="43.42091" lon="2.46393">
        <ele>1141</ele>
        <time>2017-10-13T19:55:35Z</time>
      </trkpt>
      <trkpt lat="43.42082" lon="2.46383">
        <ele>1138</ele>
        <time>2017-10-13T19:57:35Z</time>
      </trkpt>
      <trkpt lat="43.42079" lon="2.46376">
        <ele>1138</ele>
        <time>2017-10-13T19:59:35Z</time>
      </trkpt>
      <trkpt lat="43.4208" lon="2.46375">
        <ele>1138</ele>
        <time>2017-10-13T20:01:35Z</time>
      </trkpt>
      <trkpt lat="43.4208" lon="2.46376">
        <ele>1138</ele>
        <time>2017-10-13T20:03:35Z</time>
      </trkpt>
      <trkpt lat="43.42079" lon="2.46376">
        <ele>1138</ele>
        <time>2017-10-13T20:05:35Z</time>
      </trkpt>
      <trkpt lat="43.42079" lon="2.46376">
        <ele>1138</ele>
        <time>2017-10-13T20:07:35Z</time>
      </trkpt>
      <trkpt lat="43.42079" lon="2.46375">
        <ele>1138</ele>
        <time>2017-10-13T20:09:35Z</time>
      </trkpt>
      <trkpt lat="43.42077" lon="2.46374">
        <ele>1137</ele>
        <time>2017-10-13T20:11:35Z</time>
      </trkpt>
      <trkpt lat="43.42079" lon="2.46375">
        <ele>1138</ele>
        <time>2017-10-13T20:13:35Z</time>
      </trkpt>
      <trkpt lat="43.42078" lon="2.46377">
        <ele>1138</ele>
        <time>2017-10-13T20:15:35Z</time>
      </trkpt>
      <trkpt lat="43.42079" lon="2.46375">
        <ele>1138</ele>
        <time>2017-10-13T20:17:35Z</time>
      </trkpt>
      <trkpt lat="43.4208" lon="2.46375">
        <ele>1138</ele>
        <time>2017-10-13T20:19:35Z</time>
      </trkpt>
      <trkpt lat="43.42075" lon="2.46362">
        <ele>1136</ele>
        <time>2017-10-13T20:21:35Z</time>
      </trkpt>
      <trkpt lat="43.42065" lon="2.46346">
        <ele>1135</ele>
        <time>2017-10-13T20:23:35Z</time>
      </trkpt>
      <trkpt lat="43.42047" lon="2.4632">
        <ele>1131</ele>
        <time>2017-10-13T20:25:35Z</time>
      </trkpt>
      <trkpt lat="43.42036" lon="2.46304">
        <ele>1130</ele>
        <time>2017-10-13T20:27:35Z</time>
      </trkpt>
      <trkpt lat="43.42024" lon="2.46288">
        <ele>1128</ele>
        <time>2017-10-13T20:29:35Z</time>
      </trkpt>
      <trkpt lat="43.41994" lon="2.46255">
        <ele>1124</ele>
        <time>2017-10-13T20:31:35Z</time>
      </trkpt>
      <trkpt lat="43.4198" lon="2.46238">
        <ele>1122</ele>
        <time>2017-10-13T20:33:35Z</time>
      </trkpt>
      <trkpt lat="43.41965" lon="2.46222">
        <ele>1120</ele>
        <time>2017-10-13T20:35:35Z</time>
      </trkpt>
      <trkpt lat="43.4195" lon="2.46206">
        <ele>1118</ele>
        <time>2017-10-13T20:37:35Z</time>
      </trkpt>
      <trkpt lat="43.4194" lon="2.46193">
        <ele>1117</ele>
        <time>2017-10-13T20:39:35Z</time>
      </trkpt>
      <trkpt lat="43.41929" lon="2.46181">
        <ele>1116</ele>
        <time>2017-10-13T20:41:35Z</time>
      </trkpt>
      <trkpt lat="43.41915" lon="2.46168">
        <ele>1115</ele>
        <time>2017-10-13T20:43:35Z</time>
      </trkpt>
      <trkpt lat="43.41905" lon="2.4616">
        <ele>1113</ele>
        <time>2017-10-13T20:45:35Z</time>
      </trkpt>
      <trkpt lat="43.41896" lon="2.46155">
        <ele>1111</ele>
        <time>2017-10-13T20:47:35Z</time>
      </trkpt>
      <trkpt lat="43.41874" lon="2.46133">
        <ele>1107</ele>
        <time>2017-10-13T20:49:35Z</time>
      </trkpt>
      <trkpt lat="43.41864" lon="2.46123">
        <ele>1105</ele>
        <time>2017-10-13T20:51:35Z</time>
      </trkpt>
      <trkpt lat="43.41853" lon="2.46109">
        <ele>1103</ele>
        <time>2017-10-13T20:53:35Z</time>
      </trkpt>
      <trkpt lat="43.41843" lon="2.46094">
        <ele>1101</ele>
        <time>2017-10-13T20:55:35Z</time>
      </trkpt>
      <trkpt lat="43.41834" lon="2.46083">
        <ele>1099</ele>
        <time>2017-10-13T20:57:35Z</time>
      </trkpt>
      <trkpt lat="43.41825" lon="2.46074">
        <ele>1097</ele>
        <time>2017-10-13T20:59:35Z</time>
      </trkpt>
      <trkpt lat="43.41812" lon="2.4606">
        <ele>1095</ele>
        <time>2017-10-13T21:01:35Z</time>
      </trkpt>
      <trkpt lat="43.4179" lon="2.46036">
        <ele>1091</ele>
        <time>2017-10-13T21:03:35Z</time>
      </trkpt>
      <trkpt lat="43.41772" lon="2.46016">
        <ele>1088</ele>
        <time>2017-10-13T21:05:35Z</time>
      </trkpt>
      <trkpt lat="43.41757" lon="2.46002">
        <ele>1086</ele>
        <time>2017-10-13T21:07:35Z</time>
      </trkpt>
      <trkpt lat="43.41751" lon="2.45993">
        <ele>1084</ele>
        <time>2017-10-13T21:09:35Z</time>
      </trkpt>
      <trkpt lat="43.41744" lon="2.45985">
        <ele>1083</ele>
        <time>2017-10-13T21:11:35Z</time>
      </trkpt>
      <trkpt lat="43.41743" lon="2.45985">
        <ele>1082</ele>
        <time>2017-10-13T21:13:35Z</time>
      </trkpt>
      <trkpt lat="43.41732" lon="2.45973">
        <ele>1080</ele>
        <time>2017-10-13T21:15:35Z</time>
      </trkpt>
      <trkpt lat="43.41724" lon="2.45963">
        <ele>1078</ele>
        <time>2017-10-13T21:17:35Z</time>
      </trkpt>
      <trkpt lat="43.41715" lon="2.45953">
        <ele>1076</ele>
        <time>2017-10-13T21:19:35Z</time>
      </trkpt>
      <trkpt lat="43.41706" lon="2.45945">
        <ele>1074</ele>
        <time>2017-10-13T21:21:35Z</time>
      </trkpt>
      <trkpt lat="43.41703" lon="2.45941">
        <ele>1073</ele>
        <time>2017-10-13T21:23:35Z</time>
      </trkpt>
      <trkpt lat="43.41703" lon="2.4594">
        <ele>1073</ele>
        <time>2017-10-13T21:25:35Z</time>
      </trkpt>
      <trkpt lat="43.41702" lon="2.45939">
        <ele>1073</ele>
        <time>2017-10-13T21:27:35Z</time>
      </trkpt>
      <trkpt lat="43.41697" lon="2.45935">
        <ele>1072</ele>
        <time>2017-10-13T21:29:35Z</time>
      </trkpt>
      <trkpt lat="43.41698" lon="2.45934">
        <ele>1072</ele>
        <time>2017-10-13T21:31:35Z</time>
      </trkpt>
      <trkpt lat="43.41698" lon="2.45936">
        <ele>1073</ele>
        <time>2017-10-13T21:33:35Z</time>
      </trkpt>
      <trkpt lat="43.4168" lon="2.45916">
        <ele>1069</ele>
        <time>2017-10-13T21:35:35Z</time>
      </trkpt>
      <trkpt lat="43.4167" lon="2.45908">
        <ele>1068</ele>
        <time>2017-10-13T21:37:35Z</time>
      </trkpt>
      <trkpt lat="43.41662" lon="2.45897">
        <ele>1066</ele>
        <time>2017-10-13T21:39:35Z</time>
      </trkpt>
      <trkpt lat="43.4165" lon="2.45885">
        <ele>1065</ele>
        <time>2017-10-13T21:41:35Z</time>
      </trkpt>
      <trkpt lat="43.41644" lon="2.45881">
        <ele>1064</ele>
        <time>2017-10-13T21:43:35Z</time>
      </trkpt>
      <trkpt lat="43.41628" lon="2.4586">
        <ele>1062</ele>
        <time>2017-10-13T21:45:35Z</time>
      </trkpt>
      <trkpt lat="43.41613" lon="2.45844">
        <ele>1062</ele>
        <time>2017-10-13T21:47:35Z</time>
      </trkpt>
      <trkpt lat="43.41596" lon="2.45829">
        <ele>1061</ele>
        <time>2017-10-13T21:49:35Z</time>
      </trkpt>
      <trkpt lat="43.41571" lon="2.45803">
        <ele>1059</ele>
        <time>2017-10-13T21:51:35Z</time>
      </trkpt>
      <trkpt lat="43.41566" lon="2.45799">
        <ele>1058</ele>
        <time>2017-10-13T21:53:35Z</time>
      </trkpt>
      <trkpt lat="43.41565" lon="2.458">
        <ele>1058</ele>
        <time>2017-10-13T21:55:35Z</time>
      </trkpt>
      <trkpt lat="43.41564" lon="2.45798">
        <ele>1058</ele>
        <time>2017-10-13T21:57:35Z</time>
      </trkpt>
      <trkpt lat="43.41565" lon="2.45798">
        <ele>1058</ele>
        <time>2017-10-13T21:59:35Z</time>
      </trkpt>
      <trkpt lat="43.41564" lon="2.45797">
        <ele>1058</ele>
        <time>2017-10-13T22:01:35Z</time>
      </trkpt>
      <trkpt lat="43.41565" lon="2.45794">
        <ele>1058</ele>
        <time>2017-10-13T22:03:35Z</time>
      </trkpt>
      <trkpt lat="43.41564" lon="2.45795">
        <ele>1058</ele>
        <time>2017-10-13T22:05:35Z</time>
      </trkpt>
      <trkpt lat="43.41561" lon="2.45794">
        <ele>1058</ele>
        <time>2017-10-13T22:07:35Z</time>
      </trkpt>
      <trkpt lat="43.41551" lon="2.45782">
        <ele>1057</ele>
        <time>2017-10-13T22:09:35Z</time>
      </trkpt>
      <trkpt lat="43.41541" lon="2.45774">
        <ele>1056</ele>
        <time>2017-10-13T22:11:35Z</time>
      </trkpt>
      <trkpt lat="43.41531" lon="2.45777">
        <ele>1056</ele>
        <time>2017-10-13T22:13:35Z</time>
      </trkpt>
      <trkpt lat="43.41522" lon="2.45783">
        <ele>1056</ele>
        <time>2017-10-13T22:15:35Z</time>
      </trkpt>
      <trkpt lat="43.41518" lon="2.45772">
        <ele>1056</ele>
        <time>2017-10-13T22:17:35Z</time>
      </trkpt>
      <trkpt lat="43.41513" lon="2.45749">
        <ele>1056</ele>
        <time>2017-10-13T22:19:35Z</time>
      </trkpt>
      <trkpt lat="43.41502" lon="2.45734">
        <ele>1055</ele>
        <time>2017-10-13T22:21:35Z</time>
      </trkpt>
      <trkpt lat="43.41488" lon="2.45707">
        <ele>1051</ele>
        <time>2017-10-13T22:23:35Z</time>
      </trkpt>
      <trkpt lat="43.41486" lon="2.45702">
        <ele>1050</ele>
        <time>2017-10-13T22:25:35Z</time>
      </trkpt>
      <trkpt lat="43.4148" lon="2.45701">
        <ele>1049</ele>
        <time>2017-10-13T22:27:35Z</time>
      </trkpt>
      <trkpt lat="43.41473" lon="2.45703">
        <ele>1048</ele>
        <time>2017-10-13T22:29:35Z</time>
      </trkpt>
      <trkpt lat="43.41467" lon="2.45716">
        <ele>1047</ele>
        <time>2017-10-13T22:31:35Z</time>
      </trkpt>
      <trkpt lat="43.41466" lon="2.45731">
        <ele>1048</ele>
        <time>2017-10-13T22:33:35Z</time>
      </trkpt>
      <trkpt lat="43.41468" lon="2.45745">
        <ele>1049</ele>
        <time>2017-10-13T22:35:35Z</time>
      </trkpt>
      <trkpt lat="43.41465" lon="2.45763">
        <ele>1049</ele>
        <time>2017-10-13T22:37:35Z</time>
      </trkpt>
      <trkpt lat="43.41458" lon="2.45765">
        <ele>1047</ele>
        <time>2017-10-13T22:39:35Z</time>
      </trkpt>
      <trkpt lat="43.41447" lon="2.45773">
        <ele>1045</ele>
        <time>2017-10-13T22:41:35Z</time>
      </trkpt>
      <trkpt lat="43.4144" lon="2.45775">
        <ele>1044</ele>
        <time>2017-10-13T22:43:35Z</time>
      </trkpt>
      <trkpt lat="43.4143" lon="2.45776">
        <ele>1042</ele>
        <time>2017-10-13T22:45:35Z</time>
      </trkpt>
      <trkpt lat="43.41426" lon="2.45777">
        <ele>1041</ele>
        <time>2017-10-13T22:47:35Z</time>
      </trkpt>
      <trkpt lat="43.41421" lon="2.4578">
        <ele>1040</ele>
        <time>2017-10-13T22:49:35Z</time>
      </trkpt>
      <trkpt lat="43.41409" lon="2.45771">
        <ele>1037</ele>
        <time>2017-10-13T22:51:35Z</time>
      </trkpt>
      <trkpt lat="43.41402" lon="2.45774">
        <ele>1036</ele>
        <time>2017-10-13T22:53:35Z</time>
      </trkpt>
      <trkpt lat="43.41399" lon="2.45766">
        <ele>1035</ele>
        <time>2017-10-13T22:55:35Z</time>
      </trkpt>
      <trkpt lat="43.41393" lon="2.45759">
        <ele>1033</ele>
        <time>2017-10-13T22:57:35Z</time>
      </trkpt>
      <trkpt lat="43.41388" lon="2.45753">
        <ele>1032</ele>
        <time>2017-10-13T22:59:35Z</time>
      </trkpt>
      <trkpt lat="43.41384" lon="2.45743">
        <ele>1030</ele>
        <time>2017-10-13T23:01:35Z</time>
      </trkpt>
      <trkpt lat="43.41375" lon="2.45734">
        <ele>1027</ele>
        <time>2017-10-13T23:03:35Z</time>
      </trkpt>
      <trkpt lat="43.41372" lon="2.4572">
        <ele>1026</ele>
        <time>2017-10-13T23:05:35Z</time>
      </trkpt>
      <trkpt lat="43.41371" lon="2.45704">
        <ele>1024</ele>
        <time>2017-10-13T23:07:35Z</time>
      </trkpt>
      <trkpt lat="43.41365" lon="2.45695">
        <ele>1022</ele>
        <time>2017-10-13T23:09:35Z</time>
      </trkpt>
      <trkpt lat="43.41363" lon="2.4569">
        <ele>1021</ele>
        <time>2017-10-13T23:11:35Z</time>
      </trkpt>
      <trkpt lat="43.41351" lon="2.45672">
        <ele>1017</ele>
        <time>2017-10-13T23:13:35Z</time>
      </trkpt>
      <trkpt lat="43.41348" lon="2.45661">
        <ele>1015</ele>
        <time>2017-10-13T23:15:35Z</time>
      </trkpt>
      <trkpt lat="43.41341" lon="2.45656">
        <ele>1013</ele>
        <time>2017-10-13T23:17:35Z</time>
      </trkpt>
      <trkpt lat="43.41336" lon="2.45648">
        <ele>1011</ele>
        <time>2017-10-13T23:19:35Z</time>
      </trkpt>
      <trkpt lat="43.41334" lon="2.45633">
        <ele>1009</ele>
        <time>2017-10-13T23:21:35Z</time>
      </trkpt>
      <trkpt lat="43.41335" lon="2.45616">
        <ele>1008</ele>
        <time>2017-10-13T23:23:35Z</time>
      </trkpt>
      <trkpt lat="43.41334" lon="2.45604">
        <ele>1006</ele>
        <time>2017-10-13T23:25:35Z</time>
      </trkpt>
      <trkpt lat="43.4133" lon="2.45589">
        <ele>1004</ele>
        <time>2017-10-13T23:27:35Z</time>
      </trkpt>
      <trkpt lat="43.41329" lon="2.45579">
        <ele>1002</ele>
        <time>2017-10-13T23:29:35Z</time>
      </trkpt>
      <trkpt lat="43.41327" lon="2.45568">
        <ele>1000</ele>
        <time>2017-10-13T23:31:35Z</time>
      </trkpt>
      <trkpt lat="43.41324" lon="2.45557">
        <ele>998</ele>
        <time>2017-10-13T23:33:35Z</time>
      </trkpt>
      <trkpt lat="43.41318" lon="2.4555">
        <ele>995</ele>
        <time>2017-10-13T23:35:35Z</time>
      </trkpt>
      <trkpt lat="43.41317" lon="2.45539">
        <ele>994</ele>
        <time>2017-10-13T23:37:35Z</time>
      </trkpt>
      <trkpt lat="43.41313" lon="2.45535">
        <ele>992</ele>
        <time>2017-10-13T23:39:35Z</time>
      </trkpt>
      <trkpt lat="43.41303" lon="2.45519">
        <ele>987</ele>
        <time>2017-10-13T23:41:35Z</time>
      </trkpt>
      <trkpt lat="43.41298" lon="2.45515">
        <ele>985</ele>
        <time>2017-10-13T23:43:35Z</time>
      </trkpt>
      <trkpt lat="43.41291" lon="2.45515">
        <ele>983</ele>
        <time>2017-10-13T23:45:35Z</time>
      </trkpt>
      <trkpt lat="43.41282" lon="2.45518">
        <ele>981</ele>
        <time>2017-10-13T23:47:35Z</time>
      </trkpt>
      <trkpt lat="43.41276" lon="2.45516">
        <ele>979</ele>
        <time>2017-10-13T23:49:35Z</time>
      </trkpt>
      <trkpt lat="43.41275" lon="2.45508">
        <ele>978</ele>
        <time>2017-10-13T23:51:35Z</time>
      </trkpt>
      <trkpt lat="43.41273" lon="2.45505">
        <ele>977</ele>
        <time>2017-10-13T23:53:35Z</time>
      </trkpt>
      <trkpt lat="43.41273" lon="2.45506">
        <ele>977</ele>
        <time>2017-10-13T23:55:35Z</time>
      </trkpt>
      <trkpt lat="43.41274" lon="2.45508">
        <ele>978</ele>
        <time>2017-10-13T23:57:35Z</time>
      </trkpt>
      <trkpt lat="43.41275" lon="2.45507">
        <ele>978</ele>
        <time>2017-10-13T23:59:35Z</time>
      </trkpt>
      <trkpt lat="43.41273" lon="2.45507">
        <ele>977</ele>
        <time>2017-10-14T00:01:35Z</time>
      </trkpt>
      <trkpt lat="43.41274" lon="2.455">
        <ele>977</ele>
        <time>2017-10-14T00:03:35Z</time>
      </trkpt>
      <trkpt lat="43.41272" lon="2.45489">
        <ele>975</ele>
        <time>2017-10-14T00:05:35Z</time>
      </trkpt>
      <trkpt lat="43.41268" lon="2.45487">
        <ele>973</ele>
        <time>2017-10-14T00:07:35Z</time>
      </trkpt>
      <trkpt lat="43.41267" lon="2.45478">
        <ele>972</ele>
        <time>2017-10-14T00:09:35Z</time>
      </trkpt>
      <trkpt lat="43.4126" lon="2.45478">
        <ele>970</ele>
        <time>2017-10-14T00:11:35Z</time>
      </trkpt>
      <trkpt lat="43.41255" lon="2.45475">
        <ele>968</ele>
        <time>2017-10-14T00:13:35Z</time>
      </trkpt>
      <trkpt lat="43.41248" lon="2.45469">
        <ele>965</ele>
        <time>2017-10-14T00:15:35Z</time>
      </trkpt>
      <trkpt lat="43.41244" lon="2.45461">
        <ele>963</ele>
        <time>2017-10-14T00:17:35Z</time>
      </trkpt>
      <trkpt lat="43.41243" lon="2.45451">
        <ele>962</ele>
        <time>2017-10-14T00:19:35Z</time>
      </trkpt>
      <trkpt lat="43.41241" lon="2.45444">
        <ele>960</ele>
        <time>2017-10-14T00:21:35Z</time>
      </trkpt>
      <trkpt lat="43.41236" lon="2.45435">
        <ele>958</ele>
        <time>2017-10-14T00:23:35Z</time>
      </trkpt>
      <trkpt lat="43.4123" lon="2.45431">
        <ele>956</ele>
        <time>2017-10-14T00:25:35Z</time>
      </trkpt>
      <trkpt lat="43.41222" lon="2.45417">
        <ele>952</ele>
        <time>2017-10-14T00:27:35Z</time>
      </trkpt>
      <trkpt lat="43.41216" lon="2.45413">
        <ele>950</ele>
        <time>2017-10-14T00:29:35Z</time>
      </trkpt>
      <trkpt lat="43.4121" lon="2.45406">
        <ele>947</ele>
        <time>2017-10-14T00:31:35Z</time>
      </trkpt>
      <trkpt lat="43.412" lon="2.45405">
        <ele>944</ele>
        <time>2017-10-14T00:33:35Z</time>
      </trkpt>
      <trkpt lat="43.41195" lon="2.45398">
        <ele>942</ele>
        <time>2017-10-14T00:35:35Z</time>
      </trkpt>
      <trkpt lat="43.41189" lon="2.45393">
        <ele>940</ele>
        <time>2017-10-14T00:37:35Z</time>
      </trkpt>
      <trkpt lat="43.41183" lon="2.45387">
        <ele>938</ele>
        <time>2017-10-14T00:39:35Z</time>
      </trkpt>
      <trkpt lat="43.41183" lon="2.45383">
        <ele>938</ele>
        <time>2017-10-14T00:41:35Z</time>
      </trkpt>
      <trkpt lat="43.41182" lon="2.45381">
        <ele>937</ele>
        <time>2017-10-14T00:43:35Z</time>
      </trkpt>
      <trkpt lat="43.41178" lon="2.45372">
        <ele>935</ele>
        <time>2017-10-14T00:45:35Z</time>
      </trkpt>
      <trkpt lat="43.41174" lon="2.4537">
        <ele>934</ele>
        <time>2017-10-14T00:47:35Z</time>
      </trkpt>
      <trkpt lat="43.41162" lon="2.4536">
        <ele>930</ele>
        <time>2017-10-14T00:49:35Z</time>
      </trkpt>
      <trkpt lat="43.41159" lon="2.45355">
        <ele>929</ele>
        <time>2017-10-14T00:51:35Z</time>
      </trkpt>
      <trkpt lat="43.41153" lon="2.4535">
        <ele>927</ele>
        <time>2017-10-14T00:53:35Z</time>
      </trkpt>
      <trkpt lat="43.41141" lon="2.45333">
        <ele>922</ele>
        <time>2017-10-14T00:55:35Z</time>
      </trkpt>
      <trkpt lat="43.41129" lon="2.45312">
        <ele>917</ele>
        <time>2017-10-14T00:57:35Z</time>
      </trkpt>
      <trkpt lat="43.41123" lon="2.45303">
        <ele>914</ele>
        <time>2017-10-14T00:59:35Z</time>
      </trkpt>
      <trkpt lat="43.41108" lon="2.45285">
        <ele>908</ele>
        <time>2017-10-14T01:01:35Z</time>
      </trkpt>
      <trkpt lat="43.411" lon="2.45281">
        <ele>906</ele>
        <time>2017-10-14T01:03:35Z</time>
      </trkpt>
      <trkpt lat="43.41096" lon="2.45272">
        <ele>904</ele>
        <time>2017-10-14T01:05:35Z</time>
      </trkpt>
      <trkpt lat="43.4109" lon="2.45258">
        <ele>901</ele>
        <time>2017-10-14T01:07:35Z</time>
      </trkpt>
      <trkpt lat="43.41086" lon="2.45248">
        <ele>898</ele>
        <time>2017-10-14T01:09:35Z</time>
      </trkpt>
      <trkpt lat="43.41074" lon="2.45234">
        <ele>894</ele>
        <time>2017-10-14T01:11:35Z</time>
      </trkpt>
      <trkpt lat="43.41066" lon="2.45224">
        <ele>892</ele>
        <time>2017-10-14T01:13:35Z</time>
      </trkpt>
      <trkpt lat="43.41059" lon="2.45217">
        <ele>890</ele>
        <time>2017-10-14T01:15:35Z</time>
      </trkpt>
      <trkpt lat="43.41051" lon="2.45208">
        <ele>888</ele>
        <time>2017-10-14T01:17:35Z</time>
      </trkpt>
      <trkpt lat="43.41045" lon="2.45198">
        <ele>885</ele>
        <time>2017-10-14T01:19:35Z</time>
      </trkpt>
      <trkpt lat="43.41039" lon="2.4519">
        <ele>884</ele>
        <time>2017-10-14T01:21:35Z</time>
      </trkpt>
      <trkpt lat="43.41035" lon="2.45181">
        <ele>882</ele>
        <time>2017-10-14T01:23:35Z</time>
      </trkpt>
      <trkpt lat="43.4103" lon="2.4517">
        <ele>880</ele>
        <time>2017-10-14T01:25:35Z</time>
      </trkpt>
      <trkpt lat="43.41025" lon="2.45165">
        <ele>879</ele>
        <time>2017-10-14T01:27:35Z</time>
      </trkpt>
      <trkpt lat="43.41024" lon="2.45165">
        <ele>878</ele>
        <time>2017-10-14T01:29:35Z</time>
      </trkpt>
      <trkpt lat="43.41028" lon="2.45169">
        <ele>880</ele>
        <time>2017-10-14T01:31:35Z</time>
      </trkpt>
      <trkpt lat="43.41022" lon="2.45163">
        <ele>878</ele>
        <time>2017-10-14T01:33:35Z</time>
      </trkpt>
      <trkpt lat="43.41027" lon="2.45161">
        <ele>878</ele>
        <time>2017-10-14T01:35:35Z</time>
      </trkpt>
      <trkpt lat="43.41029" lon="2.45132">
        <ele>874</ele>
        <time>2017-10-14T01:37:35Z</time>
      </trkpt>
      <trkpt lat="43.4103" lon="2.45129">
        <ele>874</ele>
        <time>2017-10-14T01:39:35Z</time>
      </trkpt>
      <trkpt lat="43.41031" lon="2.45118">
        <ele>872</ele>
        <time>2017-10-14T01:41:35Z</time>
      </trkpt>
      <trkpt lat="43.41031" lon="2.45098">
        <ele>869</ele>
        <time>2017-10-14T01:43:35Z</time>
      </trkpt>
      <trkpt lat="43.4103" lon="2.45098">
        <ele>869</ele>
        <time>2017-10-14T01:45:35Z</time>
      </trkpt>
      <trkpt lat="43.41031" lon="2.45095">
        <ele>869</ele>
        <time>2017-10-14T01:47:35Z</time>
      </trkpt>
      <trkpt lat="43.41033" lon="2.45096">
        <ele>869</ele>
        <time>2017-10-14T01:49:35Z</time>
      </trkpt>
      <trkpt lat="43.41032" lon="2.45095">
        <ele>869</ele>
        <time>2017-10-14T01:51:35Z</time>
      </trkpt>
      <trkpt lat="43.41035" lon="2.45095">
        <ele>869</ele>
        <time>2017-10-14T01:53:35Z</time>
      </trkpt>
      <trkpt lat="43.41033" lon="2.45094">
        <ele>869</ele>
        <time>2017-10-14T01:55:35Z</time>
      </trkpt>
      <trkpt lat="43.41035" lon="2.45086">
        <ele>868</ele>
        <time>2017-10-14T01:57:35Z</time>
      </trkpt>
      <trkpt lat="43.41038" lon="2.45076">
        <ele>867</ele>
        <time>2017-10-14T01:59:35Z</time>
      </trkpt>
      <trkpt lat="43.41042" lon="2.45066">
        <ele>866</ele>
        <time>2017-10-14T02:01:35Z</time>
      </trkpt>
      <trkpt lat="43.41047" lon="2.45058">
        <ele>865</ele>
        <time>2017-10-14T02:03:35Z</time>
      </trkpt>
      <trkpt lat="43.41051" lon="2.45047">
        <ele>864</ele>
        <time>2017-10-14T02:05:35Z</time>
      </trkpt>
      <trkpt lat="43.41056" lon="2.45034">
        <ele>862</ele>
        <time>2017-10-14T02:07:35Z</time>
      </trkpt>
      <trkpt lat="43.4106" lon="2.45026">
        <ele>861</ele>
        <time>2017-10-14T02:09:35Z</time>
      </trkpt>
      <trkpt lat="43.41064" lon="2.45016">
        <ele>860</ele>
        <time>2017-10-14T02:11:35Z</time>
      </trkpt>
      <trkpt lat="43.41076" lon="2.44984">
        <ele>856</ele>
        <time>2017-10-14T02:13:35Z</time>
      </trkpt>
      <trkpt lat="43.4108" lon="2.44978">
        <ele>856</ele>
        <time>2017-10-14T02:15:35Z</time>
      </trkpt>
      <trkpt lat="43.41084" lon="2.44972">
        <ele>855</ele>
        <time>2017-10-14T02:17:35Z</time>
      </trkpt>
      <trkpt lat="43.41091" lon="2.44961">
        <ele>855</ele>
        <time>2017-10-14T02:19:35Z</time>
      </trkpt>
      <trkpt lat="43.41098" lon="2.44955">
        <ele>855</ele>
        <time>2017-10-14T02:21:35Z</time>
      </trkpt>
      <trkpt lat="43.41106" lon="2.44951">
        <ele>856</ele>
        <time>2017-10-14T02:23:35Z</time>
      </trkpt>
      <trkpt lat="43.41111" lon="2.44939">
        <ele>854</ele>
        <time>2017-10-14T02:25:35Z</time>
      </trkpt>
      <trkpt lat="43.41124" lon="2.44911">
        <ele>852</ele>
        <time>2017-10-14T02:27:35Z</time>
      </trkpt>
      <trkpt lat="43.4113" lon="2.44908">
        <ele>852</ele>
        <time>2017-10-14T02:29:35Z</time>
      </trkpt>
      <trkpt lat="43.4114" lon="2.44901">
        <ele>852</ele>
        <time>2017-10-14T02:31:35Z</time>
      </trkpt>
      <trkpt lat="43.41147" lon="2.44889">
        <ele>851</ele>
        <time>2017-10-14T02:33:35Z</time>
      </trkpt>
      <trkpt lat="43.41156" lon="2.44881">
        <ele>851</ele>
        <time>2017-10-14T02:35:35Z</time>
      </trkpt>
      <trkpt lat="43.41175" lon="2.44867">
        <ele>850</ele>
        <time>2017-10-14T02:37:35Z</time>
      </trkpt>
      <trkpt lat="43.41198" lon="2.44851">
        <ele>849</ele>
        <time>2017-10-14T02:39:35Z</time>
      </trkpt>
      <trkpt lat="43.41207" lon="2.44841">
        <ele>847</ele>
        <time>2017-10-14T02:41:35Z</time>
      </trkpt>
      <trkpt lat="43.41216" lon="2.44832">
        <ele>846</ele>
        <time>2017-10-14T02:43:35Z</time>
      </trkpt>
      <trkpt lat="43.41226" lon="2.44822">
        <ele>848</ele>
        <time>2017-10-14T02:45:35Z</time>
      </trkpt>
      <trkpt lat="43.41236" lon="2.44815">
        <ele>849</ele>
        <time>2017-10-14T02:47:35Z</time>
      </trkpt>
      <trkpt lat="43.41242" lon="2.44806">
        <ele>849</ele>
        <time>2017-10-14T02:49:35Z</time>
      </trkpt>
      <trkpt lat="43.41244" lon="2.44794">
        <ele>850</ele>
        <time>2017-10-14T02:51:35Z</time>
      </trkpt>
      <trkpt lat="43.41241" lon="2.44797">
        <ele>850</ele>
        <time>2017-10-14T02:53:35Z</time>
      </trkpt>
      <trkpt lat="43.41238" lon="2.44794">
        <ele>850</ele>
        <time>2017-10-14T02:55:35Z</time>
      </trkpt>
      <trkpt lat="43.41238" lon="2.44789">
        <ele>850</ele>
        <time>2017-10-14T02:57:35Z</time>
      </trkpt>
      <trkpt lat="43.41234" lon="2.44782">
        <ele>850</ele>
        <time>2017-10-14T02:59:35Z</time>
      </trkpt>
      <trkpt lat="43.41226" lon="2.44779">
        <ele>850</ele>
        <time>2017-10-14T03:01:35Z</time>
      </trkpt>
      <trkpt lat="43.41213" lon="2.44779">
        <ele>849</ele>
        <time>2017-10-14T03:03:35Z</time>
      </trkpt>
      <trkpt lat="43.41199" lon="2.44777">
        <ele>848</ele>
        <time>2017-10-14T03:05:35Z</time>
      </trkpt>
      <trkpt lat="43.41188" lon="2.44774">
        <ele>848</ele>
        <time>2017-10-14T03:07:35Z</time>
      </trkpt>
      <trkpt lat="43.41178" lon="2.44768">
        <ele>848</ele>
        <time>2017-10-14T03:09:35Z</time>
      </trkpt>
      <trkpt lat="43.41163" lon="2.44761">
        <ele>848</ele>
        <time>2017-10-14T03:11:35Z</time>
      </trkpt>
      <trkpt lat="43.41149" lon="2.44759">
        <ele>847</ele>
        <time>2017-10-14T03:13:35Z</time>
      </trkpt>
      <trkpt lat="43.41145" lon="2.44765">
        <ele>846</ele>
        <time>2017-10-14T03:15:35Z</time>
      </trkpt>
      <trkpt lat="43.41133" lon="2.44757">
        <ele>845</ele>
        <time>2017-10-14T03:17:35Z</time>
      </trkpt>
      <trkpt lat="43.41123" lon="2.44755">
        <ele>845</ele>
        <time>2017-10-14T03:19:35Z</time>
      </trkpt>
      <trkpt lat="43.4111" lon="2.44754">
        <ele>844</ele>
        <time>2017-10-14T03:21:35Z</time>
      </trkpt>
      <trkpt lat="43.41096" lon="2.44753">
        <ele>843</ele>
        <time>2017-10-14T03:23:35Z</time>
      </trkpt>
      <trkpt lat="43.41083" lon="2.44749">
        <ele>842</ele>
        <time>2017-10-14T03:25:35Z</time>
      </trkpt>
      <trkpt lat="43.41065" lon="2.44745">
        <ele>842</ele>
        <time>2017-10-14T03:27:35Z</time>
      </trkpt>
      <trkpt lat="43.41053" lon="2.44748">
        <ele>840</ele>
        <time>2017-10-14T03:29:35Z</time>
      </trkpt>
      <trkpt lat="43.41013" lon="2.44749">
        <ele>836</ele>
        <time>2017-10-14T03:31:35Z</time>
      </trkpt>
      <trkpt lat="43.40999" lon="2.44747">
        <ele>836</ele>
        <time>2017-10-14T03:33:35Z</time>
      </trkpt>
      <trkpt lat="43.40984" lon="2.44745">
        <ele>835</ele>
        <time>2017-10-14T03:35:35Z</time>
      </trkpt>
      <trkpt lat="43.40967" lon="2.44743">
        <ele>834</ele>
        <time>2017-10-14T03:37:35Z</time>
      </trkpt>
      <trkpt lat="43.40951" lon="2.44735">
        <ele>834</ele>
        <time>2017-10-14T03:39:35Z</time>
      </trkpt>
      <trkpt lat="43.40936" lon="2.44725">
        <ele>834</ele>
        <time>2017-10-14T03:41:35Z</time>
      </trkpt>
      <trkpt lat="43.40919" lon="2.44715">
        <ele>833</ele>
        <time>2017-10-14T03:43:35Z</time>
      </trkpt>
      <trkpt lat="43.40905" lon="2.44708">
        <ele>832</ele>
        <time>2017-10-14T03:45:35Z</time>
      </trkpt>
      <trkpt lat="43.4089" lon="2.44703">
        <ele>830</ele>
        <time>2017-10-14T03:47:35Z</time>
      </trkpt>
      <trkpt lat="43.40874" lon="2.44705">
        <ele>828</ele>
        <time>2017-10-14T03:49:35Z</time>
      </trkpt>
      <trkpt lat="43.40859" lon="2.44714">
        <ele>825</ele>
        <time>2017-10-14T03:51:35Z</time>
      </trkpt>
      <trkpt lat="43.40825" lon="2.44714">
        <ele>821</ele>
        <time>2017-10-14T03:53:35Z</time>
      </trkpt>
      <trkpt lat="43.40812" lon="2.44711">
        <ele>820</ele>
        <time>2017-10-14T03:55:35Z</time>
      </trkpt>
      <trkpt lat="43.408" lon="2.447">
        <ele>819</ele>
        <time>2017-10-14T03:57:35Z</time>
      </trkpt>
      <trkpt lat="43.40791" lon="2.44686">
        <ele>819</ele>
        <time>2017-10-14T03:59:35Z</time>
      </trkpt>
      <trkpt lat="43.40769" lon="2.44653">
        <ele>818</ele>
        <time>2017-10-14T04:01:35Z</time>
      </trkpt>
      <trkpt lat="43.40764" lon="2.44622">
        <ele>818</ele>
        <time>2017-10-14T04:03:35Z</time>
      </trkpt>
      <trkpt lat="43.40763" lon="2.44615">
        <ele>818</ele>
        <time>2017-10-14T04:05:35Z</time>
      </trkpt>
      <trkpt lat="43.40759" lon="2.44603">
        <ele>818</ele>
        <time>2017-10-14T04:07:35Z</time>
      </trkpt>
      <trkpt lat="43.40755" lon="2.44602">
        <ele>817</ele>
        <time>2017-10-14T04:09:35Z</time>
      </trkpt>
      <trkpt lat="43.40753" lon="2.44613">
        <ele>817</ele>
        <time>2017-10-14T04:11:35Z</time>
      </trkpt>
      <trkpt lat="43.40749" lon="2.44642">
        <ele>816</ele>
        <time>2017-10-14T04:13:35Z</time>
      </trkpt>
      <trkpt lat="43.40748" lon="2.4467">
        <ele>815</ele>
        <time>2017-10-14T04:15:35Z</time>
      </trkpt>
      <trkpt lat="43.40748" lon="2.44704">
        <ele>813</ele>
        <time>2017-10-14T04:17:35Z</time>
      </trkpt>
      <trkpt lat="43.40747" lon="2.44717">
        <ele>812</ele>
        <time>2017-10-14T04:19:35Z</time>
      </trkpt>
      <trkpt lat="43.40746" lon="2.44715">
        <ele>813</ele>
        <time>2017-10-14T04:21:35Z</time>
      </trkpt>
      <trkpt lat="43.40746" lon="2.44713">
        <ele>813</ele>
        <time>2017-10-14T04:23:35Z</time>
      </trkpt>
      <trkpt lat="43.4074" lon="2.44715">
        <ele>812</ele>
        <time>2017-10-14T04:25:35Z</time>
      </trkpt>
      <trkpt lat="43.4073" lon="2.44723">
        <ele>812</ele>
        <time>2017-10-14T04:27:35Z</time>
      </trkpt>
      <trkpt lat="43.40713" lon="2.44731">
        <ele>811</ele>
        <time>2017-10-14T04:29:35Z</time>
      </trkpt>
      <trkpt lat="43.40657" lon="2.44753">
        <ele>809</ele>
        <time>2017-10-14T04:31:35Z</time>
      </trkpt>
      <trkpt lat="43.40639" lon="2.44759">
        <ele>808</ele>
        <time>2017-10-14T04:33:35Z</time>
      </trkpt>
      <trkpt lat="43.40623" lon="2.44765">
        <ele>807</ele>
        <time>2017-10-14T04:35:35Z</time>
      </trkpt>
      <trkpt lat="43.40605" lon="2.44774">
        <ele>806</ele>
        <time>2017-10-14T04:37:35Z</time>
      </trkpt>
      <trkpt lat="43.40594" lon="2.44782">
        <ele>806</ele>
        <time>2017-10-14T04:39:35Z</time>
      </trkpt>
      <trkpt lat="43.40578" lon="2.44795">
        <ele>805</ele>
        <time>2017-10-14T04:41:35Z</time>
      </trkpt>
      <trkpt lat="43.40565" lon="2.44805">
        <ele>804</ele>
        <time>2017-10-14T04:43:35Z</time>
      </trkpt>
      <trkpt lat="43.40552" lon="2.44814">
        <ele>803</ele>
        <time>2017-10-14T04:45:35Z</time>
      </trkpt>
      <trkpt lat="43.40533" lon="2.4482">
        <ele>801</ele>
        <time>2017-10-14T04:47:35Z</time>
      </trkpt>
      <trkpt lat="43.40518" lon="2.44828">
        <ele>800</ele>
        <time>2017-10-14T04:49:35Z</time>
      </trkpt>
      <trkpt lat="43.40506" lon="2.44845">
        <ele>799</ele>
        <time>2017-10-14T04:51:35Z</time>
      </trkpt>
      <trkpt lat="43.40482" lon="2.44888">
        <ele>797</ele>
        <time>2017-10-14T04:53:35Z</time>
      </trkpt>
      <trkpt lat="43.40474" lon="2.44905">
        <ele>796</ele>
        <time>2017-10-14T04:55:35Z</time>
      </trkpt>
      <trkpt lat="43.40461" lon="2.44926">
        <ele>795</ele>
        <time>2017-10-14T04:57:35Z</time>
      </trkpt>
      <trkpt lat="43.40451" lon="2.44941">
        <ele>794</ele>
        <time>2017-10-14T04:59:35Z</time>
      </trkpt>
      <trkpt lat="43.40431" lon="2.44953">
        <ele>792</ele>
        <time>2017-10-14T05:01:35Z</time>
      </trkpt>
      <trkpt lat="43.40415" lon="2.44961">
        <ele>791</ele>
        <time>2017-10-14T05:03:35Z</time>
      </trkpt>
      <trkpt lat="43.40404" lon="2.44967">
        <ele>791</ele>
        <time>2017-10-14T05:05:35Z</time>
      </trkpt>
      <trkpt lat="43.40396" lon="2.44976">
        <ele>791</ele>
        <time>2017-10-14T05:07:35Z</time>
      </trkpt>
      <trkpt lat="43.40369" lon="2.45">
        <ele>789</ele>
        <time>2017-10-14T05:09:35Z</time>
      </trkpt>
      <trkpt lat="43.40352" lon="2.45019">
        <ele>788</ele>
        <time>2017-10-14T05:11:35Z</time>
      </trkpt>
      <trkpt lat="43.40333" lon="2.45043">
        <ele>788</ele>
        <time>2017-10-14T05:13:35Z</time>
      </trkpt>
      <trkpt lat="43.40317" lon="2.45059">
        <ele>787</ele>
        <time>2017-10-14T05:15:35Z</time>
      </trkpt>
      <trkpt lat="43.40276" lon="2.45105">
        <ele>787</ele>
        <time>2017-10-14T05:17:35Z</time>
      </trkpt>
      <trkpt lat="43.40263" lon="2.45117">
        <ele>787</ele>
        <time>2017-10-14T05:19:35Z</time>
      </trkpt>
      <trkpt lat="43.40256" lon="2.45123">
        <ele>787</ele>
        <time>2017-10-14T05:21:35Z</time>
      </trkpt>
      <trkpt lat="43.40247" lon="2.45131">
        <ele>786</ele>
        <time>2017-10-14T05:23:35Z</time>
      </trkpt>
      <trkpt lat="43.40237" lon="2.45138">
        <ele>786</ele>
        <time>2017-10-14T05:25:35Z</time>
      </trkpt>
      <trkpt lat="43.40229" lon="2.45145">
        <ele>786</ele>
        <time>2017-10-14T05:27:35Z</time>
      </trkpt>
      <trkpt lat="43.40211" lon="2.45161">
        <ele>786</ele>
        <time>2017-10-14T05:29:35Z</time>
      </trkpt>
      <trkpt lat="43.40203" lon="2.45171">
        <ele>785</ele>
        <time>2017-10-14T05:31:35Z</time>
      </trkpt>
      <trkpt lat="43.40199" lon="2.45177">
        <ele>785</ele>
        <time>2017-10-14T05:33:35Z</time>
      </trkpt>
      <trkpt lat="43.4019" lon="2.45184">
        <ele>785</ele>
        <time>2017-10-14T05:35:35Z</time>
      </trkpt>
      <trkpt lat="43.4018" lon="2.45187">
        <ele>785</ele>
        <time>2017-10-14T05:37:35Z</time>
      </trkpt>
      <trkpt lat="43.40165" lon="2.45193">
        <ele>784</ele>
        <time>2017-10-14T05:39:35Z</time>
      </trkpt>
      <trkpt lat="43.40149" lon="2.45195">
        <ele>784</ele>
        <time>2017-10-14T05:41:35Z</time>
      </trkpt>
      <trkpt lat="43.40132" lon="2.45196">
        <ele>783</ele>
        <time>2017-10-14T05:43:35Z</time>
      </trkpt>
      <trkpt lat="43.40116" lon="2.45196">
        <ele>782</ele>
        <time>2017-10-14T05:45:35Z</time>
      </trkpt>
      <trkpt lat="43.40095" lon="2.45194">
        <ele>781</ele>
        <time>2017-10-14T05:47:35Z</time>
      </trkpt>
      <trkpt lat="43.40084" lon="2.45192">
        <ele>781</ele>
        <time>2017-10-14T05:49:35Z</time>
      </trkpt>
      <trkpt lat="43.40071" lon="2.45191">
        <ele>781</ele>
        <time>2017-10-14T05:51:35Z</time>
      </trkpt>
      <trkpt lat="43.40048" lon="2.45187">
        <ele>781</ele>
        <time>2017-10-14T05:53:35Z</time>
      </trkpt>
      <trkpt lat="43.40031" lon="2.45181">
        <ele>781</ele>
        <time>2017-10-14T05:55:35Z</time>
      </trkpt>
      <trkpt lat="43.4001" lon="2.45175">
        <ele>781</ele>
        <time>2017-10-14T05:57:35Z</time>
      </trkpt>
      <trkpt lat="43.39994" lon="2.45168">
        <ele>781</ele>
        <time>2017-10-14T05:59:35Z</time>
      </trkpt>
      <trkpt lat="43.39991" lon="2.45166">
        <ele>781</ele>
        <time>2017-10-14T06:01:35Z</time>
      </trkpt>
      <trkpt lat="43.39975" lon="2.45159">
        <ele>781</ele>
        <time>2017-10-14T06:03:35Z</time>
      </trkpt>
      <trkpt lat="43.39969" lon="2.4516">
        <ele>782</ele>
        <time>2017-10-14T06:05:35Z</time>
      </trkpt>
      <trkpt lat="43.3997" lon="2.45165">
        <ele>782</ele>
        <time>2017-10-14T06:07:35Z</time>
      </trkpt>
      <trkpt lat="43.39967" lon="2.45174">
        <ele>782</ele>
        <time>2017-10-14T06:09:35Z</time>
      </trkpt>
      <trkpt lat="43.39962" lon="2.45175">
        <ele>782</ele>
        <time>2017-10-14T06:11:35Z</time>
      </trkpt>
      <trkpt lat="43.39961" lon="2.45174">
        <ele>782</ele>
        <time>2017-10-14T06:13:35Z</time>
      </trkpt>
      <trkpt lat="43.39961" lon="2.45173">
        <ele>782</ele>
        <time>2017-10-14T06:15:35Z</time>
      </trkpt>
      <trkpt lat="43.39958" lon="2.45176">
        <ele>782</ele>
        <time>2017-10-14T06:17:35Z</time>
      </trkpt>
      <trkpt lat="43.39957" lon="2.45173">
        <ele>782</ele>
        <time>2017-10-14T06:19:35Z</time>
      </trkpt>
      <trkpt lat="43.39963" lon="2.45175">
        <ele>782</ele>
        <time>2017-10-14T06:21:35Z</time>
      </trkpt>
      <trkpt lat="43.39966" lon="2.45172">
        <ele>782</ele>
        <time>2017-10-14T06:23:35Z</time>
      </trkpt>
      <trkpt lat="43.39967" lon="2.45166">
        <ele>782</ele>
        <time>2017-10-14T06:25:35Z</time>
      </trkpt>
      <trkpt lat="43.39968" lon="2.45159">
        <ele>782</ele>
        <time>2017-10-14T06:27:35Z</time>
      </trkpt>
      <trkpt lat="43.39963" lon="2.45152">
        <ele>781</ele>
        <time>2017-10-14T06:29:35Z</time>
      </trkpt>
      <trkpt lat="43.39963" lon="2.45151">
        <ele>781</ele>
        <time>2017-10-14T06:31:35Z</time>
      </trkpt>
      <trkpt lat="43.39961" lon="2.45152">
        <ele>781</ele>
        <time>2017-10-14T06:33:35Z</time>
      </trkpt>
      <trkpt lat="43.39959" lon="2.45148">
        <ele>781</ele>
        <time>2017-10-14T06:35:35Z</time>
      </trkpt>
      <trkpt lat="43.39945" lon="2.45143">
        <ele>782</ele>
        <time>2017-10-14T06:37:35Z</time>
      </trkpt>
      <trkpt lat="43.39932" lon="2.45132">
        <ele>782</ele>
        <time>2017-10-14T06:39:35Z</time>
      </trkpt>
      <trkpt lat="43.39932" lon="2.45121">
        <ele>781</ele>
        <time>2017-10-14T06:41:35Z</time>
      </trkpt>
      <trkpt lat="43.3993" lon="2.4512">
        <ele>781</ele>
        <time>2017-10-14T06:43:35Z</time>
      </trkpt>
      <trkpt lat="43.39928" lon="2.45124">
        <ele>782</ele>
        <time>2017-10-14T06:45:35Z</time>
      </trkpt>
      <trkpt lat="43.39919" lon="2.45117">
        <ele>782</ele>
        <time>2017-10-14T06:47:35Z</time>
      </trkpt>
      <trkpt lat="43.39908" lon="2.45105">
        <ele>782</ele>
        <time>2017-10-14T06:49:35Z</time>
      </trkpt>
      <trkpt lat="43.39897" lon="2.45094">
        <ele>782</ele>
        <time>2017-10-14T06:51:35Z</time>
      </trkpt>
      <trkpt lat="43.39883" lon="2.45081">
        <ele>782</ele>
        <time>2017-10-14T06:53:35Z</time>
      </trkpt>
      <trkpt lat="43.39863" lon="2.45062">
        <ele>782</ele>
        <time>2017-10-14T06:55:35Z</time>
      </trkpt>
      <trkpt lat="43.39851" lon="2.45054">
        <ele>783</ele>
        <time>2017-10-14T06:57:35Z</time>
      </trkpt>
      <trkpt lat="43.39853" lon="2.45038">
        <ele>782</ele>
        <time>2017-10-14T06:59:35Z</time>
      </trkpt>
      <trkpt lat="43.39861" lon="2.45021">
        <ele>782</ele>
        <time>2017-10-14T07:01:35Z</time>
      </trkpt>
      <trkpt lat="43.39868" lon="2.45004">
        <ele>781</ele>
        <time>2017-10-14T07:03:35Z</time>
      </trkpt>
      <trkpt lat="43.39873" lon="2.44985">
        <ele>780</ele>
        <time>2017-10-14T07:05:35Z</time>
      </trkpt>
      <trkpt lat="43.39881" lon="2.44963">
        <ele>778</ele>
        <time>2017-10-14T07:07:35Z</time>
      </trkpt>
      <trkpt lat="43.39891" lon="2.44952">
        <ele>777</ele>
        <time>2017-10-14T07:09:35Z</time>
      </trkpt>
      <trkpt lat="43.39894" lon="2.44945">
        <ele>776</ele>
        <time>2017-10-14T07:11:35Z</time>
      </trkpt>
      <trkpt lat="43.39896" lon="2.4493">
        <ele>775</ele>
        <time>2017-10-14T07:13:35Z</time>
      </trkpt>
      <trkpt lat="43.39896" lon="2.44899">
        <ele>774</ele>
        <time>2017-10-14T07:15:35Z</time>
      </trkpt>
      <trkpt lat="43.39898" lon="2.44857">
        <ele>773</ele>
        <time>2017-10-14T07:17:35Z</time>
      </trkpt>
      <trkpt lat="43.399" lon="2.44826">
        <ele>772</ele>
        <time>2017-10-14T07:19:35Z</time>
      </trkpt>
      <trkpt lat="43.39896" lon="2.44797">
        <ele>773</ele>
        <time>2017-10-14T07:21:35Z</time>
      </trkpt>
      <trkpt lat="43.39897" lon="2.44779">
        <ele>773</ele>
        <time>2017-10-14T07:23:35Z</time>
      </trkpt>
      <trkpt lat="43.39916" lon="2.44764">
        <ele>774</ele>
        <time>2017-10-14T07:25:35Z</time>
      </trkpt>
      <trkpt lat="43.39929" lon="2.44754">
        <ele>774</ele>
        <time>2017-10-14T07:27:35Z</time>
      </trkpt>
      <trkpt lat="43.39945" lon="2.44738">
        <ele>775</ele>
        <time>2017-10-14T07:29:35Z</time>
      </trkpt>
      <trkpt lat="43.39948" lon="2.44734">
        <ele>775</ele>
        <time>2017-10-14T07:31:35Z</time>
      </trkpt>
      <trkpt lat="43.39964" lon="2.44722">
        <ele>775</ele>
        <time>2017-10-14T07:33:35Z</time>
      </trkpt>
      <trkpt lat="43.39973" lon="2.44707">
        <ele>775</ele>
        <time>2017-10-14T07:35:35Z</time>
      </trkpt>
      <trkpt lat="43.39977" lon="2.44701">
        <ele>775</ele>
        <time>2017-10-14T07:37:35Z</time>
      </trkpt>
      <trkpt lat="43.39985" lon="2.4467">
        <ele>775</ele>
        <time>2017-10-14T07:39:35Z</time>
      </trkpt>
      <trkpt lat="43.39994" lon="2.44642">
        <ele>774</ele>
        <time>2017-10-14T07:41:35Z</time>
      </trkpt>
      <trkpt lat="43.40004" lon="2.44622">
        <ele>774</ele>
        <time>2017-10-14T07:43:35Z</time>
      </trkpt>
      <trkpt lat="43.40011" lon="2.44616">
        <ele>774</ele>
        <time>2017-10-14T07:45:35Z</time>
      </trkpt>
      <trkpt lat="43.40023" lon="2.44592">
        <ele>775</ele>
        <time>2017-10-14T07:47:35Z</time>
      </trkpt>
      <trkpt lat="43.40033" lon="2.44565">
        <ele>775</ele>
        <time>2017-10-14T07:49:35Z</time>
      </trkpt>
      <trkpt lat="43.40036" lon="2.44553">
        <ele>775</ele>
        <time>2017-10-14T07:51:35Z</time>
      </trkpt>
      <trkpt lat="43.40039" lon="2.44525">
        <ele>775</ele>
        <time>2017-10-14T07:53:35Z</time>
      </trkpt>
      <trkpt lat="43.40043" lon="2.44503">
        <ele>775</ele>
        <time>2017-10-14T07:55:35Z</time>
      </trkpt>
      <trkpt lat="43.40048" lon="2.44482">
        <ele>775</ele>
        <time>2017-10-14T07:57:35Z</time>
      </trkpt>
      <trkpt lat="43.40055" lon="2.44464">
        <ele>775</ele>
        <time>2017-10-14T07:59:35Z</time>
      </trkpt>
      <trkpt lat="43.40063" lon="2.44443">
        <ele>775</ele>
        <time>2017-10-14T08:01:35Z</time>
      </trkpt>
      <trkpt lat="43.40066" lon="2.44413">
        <ele>774</ele>
        <time>2017-10-14T08:03:35Z</time>
      </trkpt>
      <trkpt lat="43.40073" lon="2.44391">
        <ele>774</ele>
        <time>2017-10-14T08:05:35Z</time>
      </trkpt>
      <trkpt lat="43.40077" lon="2.44368">
        <ele>774</ele>
        <time>2017-10-14T08:07:35Z</time>
      </trkpt>
      <trkpt lat="43.40079" lon="2.44349">
        <ele>774</ele>
        <time>2017-10-14T08:09:35Z</time>
      </trkpt>
      <trkpt lat="43.40094" lon="2.44339">
        <ele>775</ele>
        <time>2017-10-14T08:11:35Z</time>
      </trkpt>
      <trkpt lat="43.40103" lon="2.44333">
        <ele>775</ele>
        <time>2017-10-14T08:13:35Z</time>
      </trkpt>
      <trkpt lat="43.40105" lon="2.44328">
        <ele>775</ele>
        <time>2017-10-14T08:15:35Z</time>
      </trkpt>
      <trkpt lat="43.40111" lon="2.44329">
        <ele>775</ele>
        <time>2017-10-14T08:17:35Z</time>
      </trkpt>
      <trkpt lat="43.4011" lon="2.44331">
        <ele>775</ele>
        <time>2017-10-14T08:19:35Z</time>
      </trkpt>
      <trkpt lat="43.40107" lon="2.44332">
        <ele>775</ele>
        <time>2017-10-14T08:21:35Z</time>
      </trkpt>
      <trkpt lat="43.40107" lon="2.44332">
        <ele>775</ele>
        <time>2017-10-14T08:23:35Z</time>
      </trkpt>
      <trkpt lat="43.40106" lon="2.44332">
        <ele>775</ele>
        <time>2017-10-14T08:25:35Z</time>
      </trkpt>
      <trkpt lat="43.40106" lon="2.44331">
        <ele>775</ele>
        <time>2017-10-14T08:27:35Z</time>
      </trkpt>
      <trkpt lat="43.40104" lon="2.44331">
        <ele>775</ele>
        <time>2017-10-14T08:29:35Z</time>
      </trkpt>
      <trkpt lat="43.40107" lon="2.4433">
        <ele>775</ele>
        <time>2017-10-14T08:31:35Z</time>
      </trkpt>
      <trkpt lat="43.40129" lon="2.4433">
        <ele>777</ele>
        <time>2017-10-14T08:33:35Z</time>
      </trkpt>
      <trkpt lat="43.40147" lon="2.44334">
        <ele>778</ele>
        <time>2017-10-14T08:35:35Z</time>
      </trkpt>
      <trkpt lat="43.40153" lon="2.44336">
        <ele>778</ele>
        <time>2017-10-14T08:37:35Z</time>
      </trkpt>
      <trkpt lat="43.40174" lon="2.44354">
        <ele>780</ele>
        <time>2017-10-14T08:39:35Z</time>
      </trkpt>
      <trkpt lat="43.40192" lon="2.44368">
        <ele>780</ele>
        <time>2017-10-14T08:41:35Z</time>
      </trkpt>
      <trkpt lat="43.40199" lon="2.44374">
        <ele>781</ele>
        <time>2017-10-14T08:43:35Z</time>
      </trkpt>
      <trkpt lat="43.40217" lon="2.44385">
        <ele>782</ele>
        <time>2017-10-14T08:45:35Z</time>
      </trkpt>
      <trkpt lat="43.40216" lon="2.44379">
        <ele>782</ele>
        <time>2017-10-14T08:47:35Z</time>
      </trkpt>
      <trkpt lat="43.40217" lon="2.44373">
        <ele>782</ele>
        <time>2017-10-14T08:49:35Z</time>
      </trkpt>
      <trkpt lat="43.40215" lon="2.44369">
        <ele>781</ele>
        <time>2017-10-14T08:51:35Z</time>
      </trkpt>
      <trkpt lat="43.4021" lon="2.44358">
        <ele>781</ele>
        <time>2017-10-14T08:53:35Z</time>
      </trkpt>
      <trkpt lat="43.40205" lon="2.44331">
        <ele>780</ele>
        <time>2017-10-14T08:55:35Z</time>
      </trkpt>
      <trkpt lat="43.40202" lon="2.4426">
        <ele>777</ele>
        <time>2017-10-14T08:57:35Z</time>
      </trkpt>
      <trkpt lat="43.40202" lon="2.44233">
        <ele>777</ele>
        <time>2017-10-14T08:59:35Z</time>
      </trkpt>
      <trkpt lat="43.402" lon="2.44209">
        <ele>777</ele>
        <time>2017-10-14T09:01:35Z</time>
      </trkpt>
      <trkpt lat="43.40199" lon="2.44175">
        <ele>777</ele>
        <time>2017-10-14T09:03:35Z</time>
      </trkpt>
      <trkpt lat="43.40199" lon="2.44143">
        <ele>778</ele>
        <time>2017-10-14T09:05:35Z</time>
      </trkpt>
      <trkpt lat="43.40196" lon="2.44108">
        <ele>779</ele>
        <time>2017-10-14T09:07:35Z</time>
      </trkpt>
      <trkpt lat="43.40196" lon="2.44071">
        <ele>781</ele>
        <time>2017-10-14T09:09:35Z</time>
      </trkpt>
      <trkpt lat="43.40193" lon="2.44042">
        <ele>784</ele>
        <time>2017-10-14T09:11:35Z</time>
      </trkpt>
      <trkpt lat="43.4019" lon="2.44038">
        <ele>784</ele>
        <time>2017-10-14T09:13:35Z</time>
      </trkpt>
      <trkpt lat="43.40182" lon="2.44047">
        <ele>783</ele>
        <time>2017-10-14T09:15:35Z</time>
      </trkpt>
      <trkpt lat="43.40174" lon="2.44045">
        <ele>784</ele>
        <time>2017-10-14T09:17:35Z</time>
      </trkpt>
      <trkpt lat="43.40165" lon="2.44029">
        <ele>785</ele>
        <time>2017-10-14T09:19:35Z</time>
      </trkpt>
      <trkpt lat="43.40155" lon="2.44023">
        <ele>784</ele>
        <time>2017-10-14T09:21:35Z</time>
      </trkpt>
      <trkpt lat="43.40156" lon="2.44024">
        <ele>784</ele>
        <time>2017-10-14T09:23:35Z</time>
      </trkpt>
      <trkpt lat="43.40153" lon="2.44023">
        <ele>784</ele>
        <time>2017-10-14T09:25:35Z</time>
      </trkpt>
    </trkseg>
  </trk>
</gpx>